﻿<?xml version="1.0" encoding="UTF-8"?>
<gpx version="1.1" creator="marathonsworld.com utc" xsi:schemaLocation="http://www.topografix.com/GPX/1/1 http://www.topografix.com/GPX/1/1/gpx.xsd http://www.garmin.com/xmlschemas/GpxExtensions/v3 http://www.garmin.com/xmlschemas/GpxExtensionsv3.xsd http://www.garmin.com/xmlschemas/TrackPointExtension/v1 http://www.garmin.com/xmlschemas/TrackPointExtensionv1.xsd" xmlns="http://www.topografix.com/GPX/1/1" xmlns:gpxtpx="http://www.garmin.com/xmlschemas/TrackPointExtension/v1" xmlns:gpxx="http://www.garmin.com/xmlschemas/GpxExtensions/v3" xmlns:xsi="http://www.w3.org/2001/XMLSchema-instance">
<metadata>
<time>2017-07-08T14:30:48Z</time></metadata>
<trk>
<name><![CDATA[Track2017/07/08_13:23]]></name>
<trkseg>
<trkpt lat="53.610092744" lon="10.143504714">
<ele>64.170952</ele>
<time>2017-07-08T11:23:51.000Z</time>
</trkpt>
<trkpt lat="53.610224050" lon="10.143655664">
<ele>80.025024</ele>
<time>2017-07-08T11:29:42.000Z</time>
</trkpt>
<trkpt lat="53.611065804" lon="10.144928849">
<ele>82.079872</ele>
<time>2017-07-08T11:32:15.000Z</time>
</trkpt>
<trkpt lat="53.611188940" lon="10.145200967">
<ele>81.693161</ele>
<time>2017-07-08T11:32:18.000Z</time>
</trkpt>
<trkpt lat="53.611240610" lon="10.145347573">
<ele>81.665489</ele>
<time>2017-07-08T11:32:21.000Z</time>
</trkpt>
<trkpt lat="53.611264815" lon="10.145399430">
<ele>78.615532</ele>
<time>2017-07-08T11:32:24.000Z</time>
</trkpt>
<trkpt lat="53.611308786" lon="10.145373081">
<ele>78.537582</ele>
<time>2017-07-08T11:32:27.000Z</time>
</trkpt>
<trkpt lat="53.611316459" lon="10.145328182">
<ele>78.145943</ele>
<time>2017-07-08T11:32:30.000Z</time>
</trkpt>
<trkpt lat="53.611309564" lon="10.145297643">
<ele>78.135773</ele>
<time>2017-07-08T11:32:51.000Z</time>
</trkpt>
<trkpt lat="53.611281966" lon="10.145211233">
<ele>78.071060</ele>
<time>2017-07-08T11:32:54.000Z</time>
</trkpt>
<trkpt lat="53.611252325" lon="10.145158010">
<ele>77.067032</ele>
<time>2017-07-08T11:32:57.000Z</time>
</trkpt>
<trkpt lat="53.611204311" lon="10.145104338">
<ele>76.120758</ele>
<time>2017-07-08T11:33:00.000Z</time>
</trkpt>
<trkpt lat="53.611130747" lon="10.144929440">
<ele>73.992996</ele>
<time>2017-07-08T11:33:03.000Z</time>
</trkpt>
<trkpt lat="53.611020094" lon="10.144642225">
<ele>72.569542</ele>
<time>2017-07-08T11:33:06.000Z</time>
</trkpt>
<trkpt lat="53.610883415" lon="10.144296813">
<ele>70.859650</ele>
<time>2017-07-08T11:33:09.000Z</time>
</trkpt>
<trkpt lat="53.610720145" lon="10.143881379">
<ele>70.493767</ele>
<time>2017-07-08T11:33:12.000Z</time>
</trkpt>
<trkpt lat="53.610556962" lon="10.143470517">
<ele>69.599251</ele>
<time>2017-07-08T11:33:15.000Z</time>
</trkpt>
<trkpt lat="53.610384529" lon="10.143044769">
<ele>68.423439</ele>
<time>2017-07-08T11:33:18.000Z</time>
</trkpt>
<trkpt lat="53.610231985" lon="10.142623108">
<ele>68.541229</ele>
<time>2017-07-08T11:33:21.000Z</time>
</trkpt>
<trkpt lat="53.610055518" lon="10.142209814">
<ele>67.044403</ele>
<time>2017-07-08T11:33:24.000Z</time>
</trkpt>
<trkpt lat="53.609861300" lon="10.141759606">
<ele>64.974777</ele>
<time>2017-07-08T11:33:27.000Z</time>
</trkpt>
<trkpt lat="53.609660721" lon="10.141321918">
<ele>64.166328</ele>
<time>2017-07-08T11:33:30.000Z</time>
</trkpt>
<trkpt lat="53.609467759" lon="10.140846940">
<ele>64.488770</ele>
<time>2017-07-08T11:33:33.000Z</time>
</trkpt>
<trkpt lat="53.609282982" lon="10.140360415">
<ele>64.995453</ele>
<time>2017-07-08T11:33:36.000Z</time>
</trkpt>
<trkpt lat="53.609087373" lon="10.139861672">
<ele>65.531029</ele>
<time>2017-07-08T11:33:39.000Z</time>
</trkpt>
<trkpt lat="53.608894046" lon="10.139356339">
<ele>65.527611</ele>
<time>2017-07-08T11:33:42.000Z</time>
</trkpt>
<trkpt lat="53.608697698" lon="10.138866620">
<ele>65.964653</ele>
<time>2017-07-08T11:33:45.000Z</time>
</trkpt>
<trkpt lat="53.608490920" lon="10.138391994">
<ele>68.018555</ele>
<time>2017-07-08T11:33:48.000Z</time>
</trkpt>
<trkpt lat="53.608302168" lon="10.137927388">
<ele>68.587288</ele>
<time>2017-07-08T11:33:51.000Z</time>
</trkpt>
<trkpt lat="53.608127130" lon="10.137473274">
<ele>68.922150</ele>
<time>2017-07-08T11:33:54.000Z</time>
</trkpt>
<trkpt lat="53.607924869" lon="10.137043840">
<ele>68.067627</ele>
<time>2017-07-08T11:33:57.000Z</time>
</trkpt>
<trkpt lat="53.607699638" lon="10.136637708">
<ele>66.335495</ele>
<time>2017-07-08T11:34:00.000Z</time>
</trkpt>
<trkpt lat="53.607471482" lon="10.136254727">
<ele>65.218697</ele>
<time>2017-07-08T11:34:03.000Z</time>
</trkpt>
<trkpt lat="53.607242145" lon="10.135873613">
<ele>63.763035</ele>
<time>2017-07-08T11:34:06.000Z</time>
</trkpt>
<trkpt lat="53.607012820" lon="10.135474189">
<ele>62.167259</ele>
<time>2017-07-08T11:34:09.000Z</time>
</trkpt>
<trkpt lat="53.606765981" lon="10.135060487">
<ele>60.683712</ele>
<time>2017-07-08T11:34:12.000Z</time>
</trkpt>
<trkpt lat="53.606514394" lon="10.134636451">
<ele>59.432487</ele>
<time>2017-07-08T11:34:15.000Z</time>
</trkpt>
<trkpt lat="53.606260642" lon="10.134201138">
<ele>58.098339</ele>
<time>2017-07-08T11:34:18.000Z</time>
</trkpt>
<trkpt lat="53.606000716" lon="10.133754483">
<ele>57.793121</ele>
<time>2017-07-08T11:34:21.000Z</time>
</trkpt>
<trkpt lat="53.605727543" lon="10.133328108">
<ele>57.384544</ele>
<time>2017-07-08T11:34:24.000Z</time>
</trkpt>
<trkpt lat="53.605442148" lon="10.132912209">
<ele>56.000881</ele>
<time>2017-07-08T11:34:27.000Z</time>
</trkpt>
<trkpt lat="53.605150495" lon="10.132482432">
<ele>48.896545</ele>
<time>2017-07-08T11:34:30.000Z</time>
</trkpt>
<trkpt lat="53.604875521" lon="10.132096503">
<ele>45.906044</ele>
<time>2017-07-08T11:34:33.000Z</time>
</trkpt>
<trkpt lat="53.604609891" lon="10.131736346">
<ele>42.423077</ele>
<time>2017-07-08T11:34:36.000Z</time>
</trkpt>
<trkpt lat="53.604336141" lon="10.131384339">
<ele>39.137962</ele>
<time>2017-07-08T11:34:39.000Z</time>
</trkpt>
<trkpt lat="53.604063195" lon="10.131033308">
<ele>36.295109</ele>
<time>2017-07-08T11:34:42.000Z</time>
</trkpt>
<trkpt lat="53.603784744" lon="10.130673947">
<ele>33.480484</ele>
<time>2017-07-08T11:34:45.000Z</time>
</trkpt>
<trkpt lat="53.603504196" lon="10.130314657">
<ele>31.512230</ele>
<time>2017-07-08T11:34:48.000Z</time>
</trkpt>
<trkpt lat="53.603230281" lon="10.129970228">
<ele>30.213579</ele>
<time>2017-07-08T11:34:51.000Z</time>
</trkpt>
<trkpt lat="53.602965775" lon="10.129643833">
<ele>28.072935</ele>
<time>2017-07-08T11:34:54.000Z</time>
</trkpt>
<trkpt lat="53.602660294" lon="10.129322615">
<ele>26.175734</ele>
<time>2017-07-08T11:34:57.000Z</time>
</trkpt>
<trkpt lat="53.602394334" lon="10.129006148">
<ele>24.007860</ele>
<time>2017-07-08T11:35:00.000Z</time>
</trkpt>
<trkpt lat="53.602154444" lon="10.128722759">
<ele>24.189346</ele>
<time>2017-07-08T11:35:03.000Z</time>
</trkpt>
<trkpt lat="53.601984920" lon="10.128503700">
<ele>24.097778</ele>
<time>2017-07-08T11:35:06.000Z</time>
</trkpt>
<trkpt lat="53.601929463" lon="10.128339533">
<ele>23.510691</ele>
<time>2017-07-08T11:35:09.000Z</time>
</trkpt>
<trkpt lat="53.601933044" lon="10.128246495">
<ele>24.294857</ele>
<time>2017-07-08T11:36:00.000Z</time>
</trkpt>
<trkpt lat="53.601931392" lon="10.128240617">
<ele>24.401857</ele>
<time>2017-07-08T11:36:03.000Z</time>
</trkpt>
<trkpt lat="53.601905714" lon="10.128142587">
<ele>27.794420</ele>
<time>2017-07-08T11:36:06.000Z</time>
</trkpt>
<trkpt lat="53.601905409" lon="10.127973999">
<ele>30.582739</ele>
<time>2017-07-08T11:36:09.000Z</time>
</trkpt>
<trkpt lat="53.602009819" lon="10.127886714">
<ele>33.855415</ele>
<time>2017-07-08T11:36:12.000Z</time>
</trkpt>
<trkpt lat="53.602122256" lon="10.127853919">
<ele>37.005421</ele>
<time>2017-07-08T11:36:15.000Z</time>
</trkpt>
<trkpt lat="53.602179728" lon="10.127829017">
<ele>40.259804</ele>
<time>2017-07-08T11:36:18.000Z</time>
</trkpt>
<trkpt lat="53.602264327" lon="10.127792351">
<ele>42.476749</ele>
<time>2017-07-08T11:36:21.000Z</time>
</trkpt>
<trkpt lat="53.602435516" lon="10.127724743">
<ele>45.211559</ele>
<time>2017-07-08T11:36:24.000Z</time>
</trkpt>
<trkpt lat="53.602671700" lon="10.127626902">
<ele>45.679234</ele>
<time>2017-07-08T11:36:27.000Z</time>
</trkpt>
<trkpt lat="53.602942771" lon="10.127497669">
<ele>48.933544</ele>
<time>2017-07-08T11:36:30.000Z</time>
</trkpt>
<trkpt lat="53.603242258" lon="10.127308526">
<ele>55.151424</ele>
<time>2017-07-08T11:36:33.000Z</time>
</trkpt>
<trkpt lat="53.603542160" lon="10.126950031">
<ele>59.020287</ele>
<time>2017-07-08T11:36:36.000Z</time>
</trkpt>
<trkpt lat="53.603791347" lon="10.126457962">
<ele>60.395214</ele>
<time>2017-07-08T11:36:39.000Z</time>
</trkpt>
<trkpt lat="53.603933369" lon="10.125835313">
<ele>63.224525</ele>
<time>2017-07-08T11:36:42.000Z</time>
</trkpt>
<trkpt lat="53.604042548" lon="10.125182512">
<ele>62.193073</ele>
<time>2017-07-08T11:36:45.000Z</time>
</trkpt>
<trkpt lat="53.604194867" lon="10.124563944">
<ele>60.580048</ele>
<time>2017-07-08T11:36:48.000Z</time>
</trkpt>
<trkpt lat="53.604405089" lon="10.123991224">
<ele>60.377796</ele>
<time>2017-07-08T11:36:51.000Z</time>
</trkpt>
<trkpt lat="53.604630103" lon="10.123441496">
<ele>62.319592</ele>
<time>2017-07-08T11:36:54.000Z</time>
</trkpt>
<trkpt lat="53.604876889" lon="10.122893816">
<ele>63.530918</ele>
<time>2017-07-08T11:36:57.000Z</time>
</trkpt>
<trkpt lat="53.605111096" lon="10.122363270">
<ele>64.927353</ele>
<time>2017-07-08T11:37:00.000Z</time>
</trkpt>
<trkpt lat="53.605360991" lon="10.121829041">
<ele>64.850677</ele>
<time>2017-07-08T11:37:03.000Z</time>
</trkpt>
<trkpt lat="53.605600604" lon="10.121341226">
<ele>65.101593</ele>
<time>2017-07-08T11:37:06.000Z</time>
</trkpt>
<trkpt lat="53.605820081" lon="10.120899454">
<ele>62.394318</ele>
<time>2017-07-08T11:37:09.000Z</time>
</trkpt>
<trkpt lat="53.606032702" lon="10.120597239">
<ele>59.950573</ele>
<time>2017-07-08T11:37:12.000Z</time>
</trkpt>
<trkpt lat="53.606181102" lon="10.120307874">
<ele>59.650154</ele>
<time>2017-07-08T11:37:15.000Z</time>
</trkpt>
<trkpt lat="53.606265218" lon="10.120127591">
<ele>61.721478</ele>
<time>2017-07-08T11:37:18.000Z</time>
</trkpt>
<trkpt lat="53.606262686" lon="10.120093967">
<ele>60.973904</ele>
<time>2017-07-08T11:37:51.000Z</time>
</trkpt>
<trkpt lat="53.606283179" lon="10.120039604">
<ele>61.528347</ele>
<time>2017-07-08T11:37:54.000Z</time>
</trkpt>
<trkpt lat="53.606367546" lon="10.119821342">
<ele>63.055305</ele>
<time>2017-07-08T11:37:57.000Z</time>
</trkpt>
<trkpt lat="53.606491051" lon="10.119475109">
<ele>63.363453</ele>
<time>2017-07-08T11:38:00.000Z</time>
</trkpt>
<trkpt lat="53.606622579" lon="10.119061111">
<ele>62.825798</ele>
<time>2017-07-08T11:38:03.000Z</time>
</trkpt>
<trkpt lat="53.606778269" lon="10.118575277">
<ele>63.326366</ele>
<time>2017-07-08T11:38:06.000Z</time>
</trkpt>
<trkpt lat="53.606950465" lon="10.118049309">
<ele>61.992390</ele>
<time>2017-07-08T11:38:09.000Z</time>
</trkpt>
<trkpt lat="53.607145749" lon="10.117514472">
<ele>62.001572</ele>
<time>2017-07-08T11:38:12.000Z</time>
</trkpt>
<trkpt lat="53.607331954" lon="10.116932251">
<ele>62.397530</ele>
<time>2017-07-08T11:38:15.000Z</time>
</trkpt>
<trkpt lat="53.607449270" lon="10.116365616">
<ele>61.846626</ele>
<time>2017-07-08T11:38:18.000Z</time>
</trkpt>
<trkpt lat="53.607489177" lon="10.115736978">
<ele>61.194427</ele>
<time>2017-07-08T11:38:21.000Z</time>
</trkpt>
<trkpt lat="53.607497593" lon="10.115107770">
<ele>61.044415</ele>
<time>2017-07-08T11:38:24.000Z</time>
</trkpt>
<trkpt lat="53.607429023" lon="10.114501018">
<ele>60.583378</ele>
<time>2017-07-08T11:38:27.000Z</time>
</trkpt>
<trkpt lat="53.607323011" lon="10.113889378">
<ele>60.786842</ele>
<time>2017-07-08T11:38:30.000Z</time>
</trkpt>
<trkpt lat="53.607201601" lon="10.113278237">
<ele>61.712944</ele>
<time>2017-07-08T11:38:33.000Z</time>
</trkpt>
<trkpt lat="53.607089599" lon="10.112674821">
<ele>61.935585</ele>
<time>2017-07-08T11:38:36.000Z</time>
</trkpt>
<trkpt lat="53.606986238" lon="10.112041430">
<ele>61.540577</ele>
<time>2017-07-08T11:38:39.000Z</time>
</trkpt>
<trkpt lat="53.606855159" lon="10.111420190">
<ele>59.731075</ele>
<time>2017-07-08T11:38:42.000Z</time>
</trkpt>
<trkpt lat="53.606745570" lon="10.110777701">
<ele>57.843643</ele>
<time>2017-07-08T11:38:45.000Z</time>
</trkpt>
<trkpt lat="53.606608869" lon="10.110154654">
<ele>56.425747</ele>
<time>2017-07-08T11:38:48.000Z</time>
</trkpt>
<trkpt lat="53.606473028" lon="10.109517797">
<ele>54.066402</ele>
<time>2017-07-08T11:38:51.000Z</time>
</trkpt>
<trkpt lat="53.606348362" lon="10.108886644">
<ele>51.124496</ele>
<time>2017-07-08T11:38:54.000Z</time>
</trkpt>
<trkpt lat="53.606203135" lon="10.108223793">
<ele>49.085934</ele>
<time>2017-07-08T11:38:57.000Z</time>
</trkpt>
<trkpt lat="53.606085972" lon="10.107560023">
<ele>47.961422</ele>
<time>2017-07-08T11:39:00.000Z</time>
</trkpt>
<trkpt lat="53.605968044" lon="10.106891609">
<ele>47.995560</ele>
<time>2017-07-08T11:39:03.000Z</time>
</trkpt>
<trkpt lat="53.605842502" lon="10.106257752">
<ele>47.639416</ele>
<time>2017-07-08T11:39:06.000Z</time>
</trkpt>
<trkpt lat="53.605682795" lon="10.105565566">
<ele>45.441231</ele>
<time>2017-07-08T11:39:09.000Z</time>
</trkpt>
<trkpt lat="53.605597658" lon="10.104864556">
<ele>43.415386</ele>
<time>2017-07-08T11:39:12.000Z</time>
</trkpt>
<trkpt lat="53.605520326" lon="10.104174920">
<ele>41.682198</ele>
<time>2017-07-08T11:39:15.000Z</time>
</trkpt>
<trkpt lat="53.605481539" lon="10.103465230">
<ele>40.444622</ele>
<time>2017-07-08T11:39:18.000Z</time>
</trkpt>
<trkpt lat="53.605440823" lon="10.102775481">
<ele>38.558201</ele>
<time>2017-07-08T11:39:21.000Z</time>
</trkpt>
<trkpt lat="53.605411632" lon="10.102109324">
<ele>37.172348</ele>
<time>2017-07-08T11:39:24.000Z</time>
</trkpt>
<trkpt lat="53.605458652" lon="10.101422877">
<ele>35.995609</ele>
<time>2017-07-08T11:39:27.000Z</time>
</trkpt>
<trkpt lat="53.605498600" lon="10.100601054">
<ele>36.280041</ele>
<time>2017-07-08T11:39:30.000Z</time>
</trkpt>
<trkpt lat="53.605541323" lon="10.099899585">
<ele>34.132263</ele>
<time>2017-07-08T11:39:33.000Z</time>
</trkpt>
<trkpt lat="53.605594978" lon="10.099210118">
<ele>32.393421</ele>
<time>2017-07-08T11:39:36.000Z</time>
</trkpt>
<trkpt lat="53.605724653" lon="10.098466560">
<ele>34.270302</ele>
<time>2017-07-08T11:39:39.000Z</time>
</trkpt>
<trkpt lat="53.605868765" lon="10.097750578">
<ele>38.939232</ele>
<time>2017-07-08T11:39:42.000Z</time>
</trkpt>
<trkpt lat="53.606010750" lon="10.097078589">
<ele>41.703476</ele>
<time>2017-07-08T11:39:45.000Z</time>
</trkpt>
<trkpt lat="53.606153775" lon="10.096417809">
<ele>44.011501</ele>
<time>2017-07-08T11:39:48.000Z</time>
</trkpt>
<trkpt lat="53.606321978" lon="10.095781470">
<ele>45.144543</ele>
<time>2017-07-08T11:39:51.000Z</time>
</trkpt>
<trkpt lat="53.606485380" lon="10.095140162">
<ele>47.143597</ele>
<time>2017-07-08T11:39:54.000Z</time>
</trkpt>
<trkpt lat="53.606634885" lon="10.094489748">
<ele>48.508194</ele>
<time>2017-07-08T11:39:57.000Z</time>
</trkpt>
<trkpt lat="53.606779883" lon="10.093808358">
<ele>49.971535</ele>
<time>2017-07-08T11:40:00.000Z</time>
</trkpt>
<trkpt lat="53.606914209" lon="10.093121764">
<ele>52.029125</ele>
<time>2017-07-08T11:40:03.000Z</time>
</trkpt>
<trkpt lat="53.607034642" lon="10.092401920">
<ele>52.319065</ele>
<time>2017-07-08T11:40:06.000Z</time>
</trkpt>
<trkpt lat="53.607145351" lon="10.091673874">
<ele>52.169296</ele>
<time>2017-07-08T11:40:09.000Z</time>
</trkpt>
<trkpt lat="53.607255223" lon="10.090930759">
<ele>51.963467</ele>
<time>2017-07-08T11:40:12.000Z</time>
</trkpt>
<trkpt lat="53.607348609" lon="10.090204599">
<ele>51.923512</ele>
<time>2017-07-08T11:40:15.000Z</time>
</trkpt>
<trkpt lat="53.607416144" lon="10.089484738">
<ele>52.352493</ele>
<time>2017-07-08T11:40:18.000Z</time>
</trkpt>
<trkpt lat="53.607484634" lon="10.088761564">
<ele>54.187546</ele>
<time>2017-07-08T11:40:21.000Z</time>
</trkpt>
<trkpt lat="53.607532197" lon="10.088053419">
<ele>56.496338</ele>
<time>2017-07-08T11:40:24.000Z</time>
</trkpt>
<trkpt lat="53.607564790" lon="10.087352607">
<ele>55.656498</ele>
<time>2017-07-08T11:40:27.000Z</time>
</trkpt>
<trkpt lat="53.607615150" lon="10.086670413">
<ele>55.702206</ele>
<time>2017-07-08T11:40:30.000Z</time>
</trkpt>
<trkpt lat="53.607684821" lon="10.086007310">
<ele>54.325497</ele>
<time>2017-07-08T11:40:33.000Z</time>
</trkpt>
<trkpt lat="53.607752600" lon="10.085338934">
<ele>53.295776</ele>
<time>2017-07-08T11:40:36.000Z</time>
</trkpt>
<trkpt lat="53.607830229" lon="10.084672366">
<ele>53.526230</ele>
<time>2017-07-08T11:40:39.000Z</time>
</trkpt>
<trkpt lat="53.607920786" lon="10.084016906">
<ele>52.305363</ele>
<time>2017-07-08T11:40:42.000Z</time>
</trkpt>
<trkpt lat="53.607989967" lon="10.083350695">
<ele>51.952538</ele>
<time>2017-07-08T11:40:45.000Z</time>
</trkpt>
<trkpt lat="53.608054032" lon="10.082707927">
<ele>50.870155</ele>
<time>2017-07-08T11:40:48.000Z</time>
</trkpt>
<trkpt lat="53.608119992" lon="10.082123771">
<ele>50.567272</ele>
<time>2017-07-08T11:40:51.000Z</time>
</trkpt>
<trkpt lat="53.608184053" lon="10.081609808">
<ele>49.748226</ele>
<time>2017-07-08T11:40:54.000Z</time>
</trkpt>
<trkpt lat="53.608285992" lon="10.081113851">
<ele>48.154526</ele>
<time>2017-07-08T11:40:57.000Z</time>
</trkpt>
<trkpt lat="53.608350817" lon="10.080624138">
<ele>50.551586</ele>
<time>2017-07-08T11:41:00.000Z</time>
</trkpt>
<trkpt lat="53.608406257" lon="10.080115476">
<ele>50.744102</ele>
<time>2017-07-08T11:41:03.000Z</time>
</trkpt>
<trkpt lat="53.608436139" lon="10.079582232">
<ele>49.865757</ele>
<time>2017-07-08T11:41:06.000Z</time>
</trkpt>
<trkpt lat="53.608470923" lon="10.079041770">
<ele>49.712456</ele>
<time>2017-07-08T11:41:09.000Z</time>
</trkpt>
<trkpt lat="53.608501204" lon="10.078466743">
<ele>50.523327</ele>
<time>2017-07-08T11:41:12.000Z</time>
</trkpt>
<trkpt lat="53.608563666" lon="10.077895356">
<ele>51.632122</ele>
<time>2017-07-08T11:41:15.000Z</time>
</trkpt>
<trkpt lat="53.608633673" lon="10.077307351">
<ele>51.256817</ele>
<time>2017-07-08T11:41:18.000Z</time>
</trkpt>
<trkpt lat="53.608670380" lon="10.076737837">
<ele>51.448128</ele>
<time>2017-07-08T11:41:21.000Z</time>
</trkpt>
<trkpt lat="53.608689998" lon="10.076181699">
<ele>51.051552</ele>
<time>2017-07-08T11:41:24.000Z</time>
</trkpt>
<trkpt lat="53.608717140" lon="10.075671877">
<ele>49.160038</ele>
<time>2017-07-08T11:41:27.000Z</time>
</trkpt>
<trkpt lat="53.608747331" lon="10.075214422">
<ele>49.526058</ele>
<time>2017-07-08T11:41:30.000Z</time>
</trkpt>
<trkpt lat="53.608754778" lon="10.074816833">
<ele>50.767487</ele>
<time>2017-07-08T11:41:33.000Z</time>
</trkpt>
<trkpt lat="53.608770444" lon="10.074428838">
<ele>49.888634</ele>
<time>2017-07-08T11:41:36.000Z</time>
</trkpt>
<trkpt lat="53.608772315" lon="10.074032130">
<ele>49.253517</ele>
<time>2017-07-08T11:41:39.000Z</time>
</trkpt>
<trkpt lat="53.608764262" lon="10.073680943">
<ele>49.582829</ele>
<time>2017-07-08T11:41:42.000Z</time>
</trkpt>
<trkpt lat="53.608779349" lon="10.073452097">
<ele>48.147728</ele>
<time>2017-07-08T11:41:45.000Z</time>
</trkpt>
<trkpt lat="53.608776188" lon="10.073346534">
<ele>48.392288</ele>
<time>2017-07-08T11:41:48.000Z</time>
</trkpt>
<trkpt lat="53.608774357" lon="10.073308516">
<ele>50.715332</ele>
<time>2017-07-08T11:42:18.000Z</time>
</trkpt>
<trkpt lat="53.608773672" lon="10.073294155">
<ele>50.699364</ele>
<time>2017-07-08T11:42:21.000Z</time>
</trkpt>
<trkpt lat="53.608759627" lon="10.073103052">
<ele>50.719212</ele>
<time>2017-07-08T11:42:24.000Z</time>
</trkpt>
<trkpt lat="53.608725471" lon="10.072776596">
<ele>50.005802</ele>
<time>2017-07-08T11:42:27.000Z</time>
</trkpt>
<trkpt lat="53.608616354" lon="10.072405984">
<ele>50.416016</ele>
<time>2017-07-08T11:42:30.000Z</time>
</trkpt>
<trkpt lat="53.608427493" lon="10.072132688">
<ele>49.066818</ele>
<time>2017-07-08T11:42:33.000Z</time>
</trkpt>
<trkpt lat="53.608178784" lon="10.071955418">
<ele>49.862942</ele>
<time>2017-07-08T11:42:36.000Z</time>
</trkpt>
<trkpt lat="53.607890189" lon="10.071794526">
<ele>52.169399</ele>
<time>2017-07-08T11:42:39.000Z</time>
</trkpt>
<trkpt lat="53.607568665" lon="10.071632341">
<ele>54.319805</ele>
<time>2017-07-08T11:42:42.000Z</time>
</trkpt>
<trkpt lat="53.607222113" lon="10.071469415">
<ele>55.123547</ele>
<time>2017-07-08T11:42:45.000Z</time>
</trkpt>
<trkpt lat="53.606861581" lon="10.071302019">
<ele>58.606533</ele>
<time>2017-07-08T11:42:48.000Z</time>
</trkpt>
<trkpt lat="53.606478205" lon="10.071141477">
<ele>61.644928</ele>
<time>2017-07-08T11:42:51.000Z</time>
</trkpt>
<trkpt lat="53.606104138" lon="10.070979492">
<ele>62.347294</ele>
<time>2017-07-08T11:42:54.000Z</time>
</trkpt>
<trkpt lat="53.605736550" lon="10.070826425">
<ele>61.804337</ele>
<time>2017-07-08T11:42:57.000Z</time>
</trkpt>
<trkpt lat="53.605375817" lon="10.070662825">
<ele>61.997963</ele>
<time>2017-07-08T11:43:00.000Z</time>
</trkpt>
<trkpt lat="53.605021686" lon="10.070514959">
<ele>63.003971</ele>
<time>2017-07-08T11:43:03.000Z</time>
</trkpt>
<trkpt lat="53.604677411" lon="10.070372722">
<ele>62.415874</ele>
<time>2017-07-08T11:43:06.000Z</time>
</trkpt>
<trkpt lat="53.604337671" lon="10.070232045">
<ele>61.947964</ele>
<time>2017-07-08T11:43:09.000Z</time>
</trkpt>
<trkpt lat="53.604014082" lon="10.070096008">
<ele>61.635750</ele>
<time>2017-07-08T11:43:12.000Z</time>
</trkpt>
<trkpt lat="53.603690067" lon="10.069934283">
<ele>61.539013</ele>
<time>2017-07-08T11:43:15.000Z</time>
</trkpt>
<trkpt lat="53.603363316" lon="10.069770650">
<ele>60.979870</ele>
<time>2017-07-08T11:43:18.000Z</time>
</trkpt>
<trkpt lat="53.603012095" lon="10.069641587">
<ele>60.390545</ele>
<time>2017-07-08T11:43:21.000Z</time>
</trkpt>
<trkpt lat="53.602672738" lon="10.069517903">
<ele>60.550053</ele>
<time>2017-07-08T11:43:24.000Z</time>
</trkpt>
<trkpt lat="53.602362631" lon="10.069351758">
<ele>61.403915</ele>
<time>2017-07-08T11:43:27.000Z</time>
</trkpt>
<trkpt lat="53.602066171" lon="10.069178326">
<ele>62.277847</ele>
<time>2017-07-08T11:43:30.000Z</time>
</trkpt>
<trkpt lat="53.601814171" lon="10.068980882">
<ele>63.050972</ele>
<time>2017-07-08T11:43:33.000Z</time>
</trkpt>
<trkpt lat="53.601659906" lon="10.068846313">
<ele>63.477535</ele>
<time>2017-07-08T11:43:36.000Z</time>
</trkpt>
<trkpt lat="53.601632316" lon="10.068784903">
<ele>64.743340</ele>
<time>2017-07-08T11:44:06.000Z</time>
</trkpt>
<trkpt lat="53.601613515" lon="10.068768780">
<ele>64.861504</ele>
<time>2017-07-08T11:44:09.000Z</time>
</trkpt>
<trkpt lat="53.601550555" lon="10.068704990">
<ele>65.435440</ele>
<time>2017-07-08T11:44:12.000Z</time>
</trkpt>
<trkpt lat="53.601381073" lon="10.068596542">
<ele>65.419083</ele>
<time>2017-07-08T11:44:15.000Z</time>
</trkpt>
<trkpt lat="53.601139462" lon="10.068433070">
<ele>65.473785</ele>
<time>2017-07-08T11:44:18.000Z</time>
</trkpt>
<trkpt lat="53.600851583" lon="10.068263312">
<ele>65.557083</ele>
<time>2017-07-08T11:44:21.000Z</time>
</trkpt>
<trkpt lat="53.600539776" lon="10.068055326">
<ele>66.004799</ele>
<time>2017-07-08T11:44:24.000Z</time>
</trkpt>
<trkpt lat="53.600247717" lon="10.067805202">
<ele>65.975151</ele>
<time>2017-07-08T11:44:27.000Z</time>
</trkpt>
<trkpt lat="53.599938657" lon="10.067475748">
<ele>65.814857</ele>
<time>2017-07-08T11:44:30.000Z</time>
</trkpt>
<trkpt lat="53.599607892" lon="10.067138594">
<ele>65.082397</ele>
<time>2017-07-08T11:44:33.000Z</time>
</trkpt>
<trkpt lat="53.599279763" lon="10.066797080">
<ele>63.293720</ele>
<time>2017-07-08T11:44:36.000Z</time>
</trkpt>
<trkpt lat="53.598963995" lon="10.066447627">
<ele>62.612041</ele>
<time>2017-07-08T11:44:39.000Z</time>
</trkpt>
<trkpt lat="53.598676151" lon="10.066090184">
<ele>60.005573</ele>
<time>2017-07-08T11:44:42.000Z</time>
</trkpt>
<trkpt lat="53.598396473" lon="10.065711834">
<ele>58.114559</ele>
<time>2017-07-08T11:44:45.000Z</time>
</trkpt>
<trkpt lat="53.598131088" lon="10.065319742">
<ele>56.169270</ele>
<time>2017-07-08T11:44:48.000Z</time>
</trkpt>
<trkpt lat="53.597845800" lon="10.064924027">
<ele>55.650345</ele>
<time>2017-07-08T11:44:51.000Z</time>
</trkpt>
<trkpt lat="53.597572280" lon="10.064506530">
<ele>54.754810</ele>
<time>2017-07-08T11:44:54.000Z</time>
</trkpt>
<trkpt lat="53.597314720" lon="10.064085366">
<ele>54.079964</ele>
<time>2017-07-08T11:44:57.000Z</time>
</trkpt>
<trkpt lat="53.597019506" lon="10.063705876">
<ele>52.762661</ele>
<time>2017-07-08T11:45:00.000Z</time>
</trkpt>
<trkpt lat="53.596752870" lon="10.063280986">
<ele>51.850109</ele>
<time>2017-07-08T11:45:03.000Z</time>
</trkpt>
<trkpt lat="53.596500794" lon="10.062829341">
<ele>49.816681</ele>
<time>2017-07-08T11:45:06.000Z</time>
</trkpt>
<trkpt lat="53.596232420" lon="10.062417434">
<ele>47.671249</ele>
<time>2017-07-08T11:45:09.000Z</time>
</trkpt>
<trkpt lat="53.595953664" lon="10.062021914">
<ele>46.765965</ele>
<time>2017-07-08T11:45:12.000Z</time>
</trkpt>
<trkpt lat="53.595682165" lon="10.061612007">
<ele>45.216312</ele>
<time>2017-07-08T11:45:15.000Z</time>
</trkpt>
<trkpt lat="53.595414305" lon="10.061227249">
<ele>45.273178</ele>
<time>2017-07-08T11:45:18.000Z</time>
</trkpt>
<trkpt lat="53.595143500" lon="10.060880688">
<ele>45.416805</ele>
<time>2017-07-08T11:45:21.000Z</time>
</trkpt>
<trkpt lat="53.594913403" lon="10.060549875">
<ele>44.289532</ele>
<time>2017-07-08T11:45:24.000Z</time>
</trkpt>
<trkpt lat="53.594694744" lon="10.060335217">
<ele>41.207088</ele>
<time>2017-07-08T11:45:27.000Z</time>
</trkpt>
<trkpt lat="53.594610132" lon="10.060125516">
<ele>43.509537</ele>
<time>2017-07-08T11:45:30.000Z</time>
</trkpt>
<trkpt lat="53.594556590" lon="10.060076947">
<ele>44.969990</ele>
<time>2017-07-08T11:45:33.000Z</time>
</trkpt>
<trkpt lat="53.594556391" lon="10.060079584">
<ele>46.125107</ele>
<time>2017-07-08T11:45:36.000Z</time>
</trkpt>
<trkpt lat="53.594554043" lon="10.060077450">
<ele>45.952316</ele>
<time>2017-07-08T11:45:39.000Z</time>
</trkpt>
<trkpt lat="53.594456095" lon="10.059999890">
<ele>42.218304</ele>
<time>2017-07-08T11:45:42.000Z</time>
</trkpt>
<trkpt lat="53.594316741" lon="10.059841692">
<ele>38.274723</ele>
<time>2017-07-08T11:45:45.000Z</time>
</trkpt>
<trkpt lat="53.594166608" lon="10.059637292">
<ele>38.121532</ele>
<time>2017-07-08T11:45:48.000Z</time>
</trkpt>
<trkpt lat="53.593986793" lon="10.059377022">
<ele>37.132919</ele>
<time>2017-07-08T11:45:51.000Z</time>
</trkpt>
<trkpt lat="53.593762916" lon="10.059101119">
<ele>36.984303</ele>
<time>2017-07-08T11:45:54.000Z</time>
</trkpt>
<trkpt lat="53.593526838" lon="10.058815165">
<ele>36.814629</ele>
<time>2017-07-08T11:45:57.000Z</time>
</trkpt>
<trkpt lat="53.593287606" lon="10.058528498">
<ele>36.590080</ele>
<time>2017-07-08T11:46:00.000Z</time>
</trkpt>
<trkpt lat="53.593086754" lon="10.058224713">
<ele>36.025246</ele>
<time>2017-07-08T11:46:03.000Z</time>
</trkpt>
<trkpt lat="53.592893831" lon="10.057946897">
<ele>36.012871</ele>
<time>2017-07-08T11:46:06.000Z</time>
</trkpt>
<trkpt lat="53.592703246" lon="10.057705471">
<ele>39.153084</ele>
<time>2017-07-08T11:46:09.000Z</time>
</trkpt>
<trkpt lat="53.592531651" lon="10.057451093">
<ele>40.226421</ele>
<time>2017-07-08T11:46:12.000Z</time>
</trkpt>
<trkpt lat="53.592354444" lon="10.057169200">
<ele>40.170261</ele>
<time>2017-07-08T11:46:15.000Z</time>
</trkpt>
<trkpt lat="53.592191977" lon="10.056902686">
<ele>39.906704</ele>
<time>2017-07-08T11:46:18.000Z</time>
</trkpt>
<trkpt lat="53.592060303" lon="10.056664171">
<ele>41.038193</ele>
<time>2017-07-08T11:46:21.000Z</time>
</trkpt>
<trkpt lat="53.591950698" lon="10.056480780">
<ele>41.554657</ele>
<time>2017-07-08T11:46:24.000Z</time>
</trkpt>
<trkpt lat="53.591880839" lon="10.056368085">
<ele>41.899776</ele>
<time>2017-07-08T11:46:27.000Z</time>
</trkpt>
<trkpt lat="53.591879672" lon="10.056282950">
<ele>42.940140</ele>
<time>2017-07-08T11:46:30.000Z</time>
</trkpt>
<trkpt lat="53.591889212" lon="10.056269986">
<ele>44.279606</ele>
<time>2017-07-08T11:46:33.000Z</time>
</trkpt>
<trkpt lat="53.591890518" lon="10.056270124">
<ele>44.485981</ele>
<time>2017-07-08T11:46:36.000Z</time>
</trkpt>
<trkpt lat="53.591891017" lon="10.056269907">
<ele>44.670280</ele>
<time>2017-07-08T11:46:39.000Z</time>
</trkpt>
<trkpt lat="53.591874415" lon="10.056240127">
<ele>44.759426</ele>
<time>2017-07-08T11:46:42.000Z</time>
</trkpt>
<trkpt lat="53.591797428" lon="10.056070119">
<ele>43.902061</ele>
<time>2017-07-08T11:46:45.000Z</time>
</trkpt>
<trkpt lat="53.591630179" lon="10.055888461">
<ele>42.203091</ele>
<time>2017-07-08T11:46:48.000Z</time>
</trkpt>
<trkpt lat="53.591446204" lon="10.055658647">
<ele>43.144573</ele>
<time>2017-07-08T11:46:51.000Z</time>
</trkpt>
<trkpt lat="53.591243288" lon="10.055378165">
<ele>41.581120</ele>
<time>2017-07-08T11:46:54.000Z</time>
</trkpt>
<trkpt lat="53.591023092" lon="10.055053636">
<ele>38.694889</ele>
<time>2017-07-08T11:46:57.000Z</time>
</trkpt>
<trkpt lat="53.590794390" lon="10.054705483">
<ele>37.475376</ele>
<time>2017-07-08T11:47:00.000Z</time>
</trkpt>
<trkpt lat="53.590561407" lon="10.054329949">
<ele>36.170002</ele>
<time>2017-07-08T11:47:03.000Z</time>
</trkpt>
<trkpt lat="53.590307966" lon="10.054017586">
<ele>34.914818</ele>
<time>2017-07-08T11:47:06.000Z</time>
</trkpt>
<trkpt lat="53.590062310" lon="10.053680807">
<ele>32.601696</ele>
<time>2017-07-08T11:47:09.000Z</time>
</trkpt>
<trkpt lat="53.589774624" lon="10.053422813">
<ele>35.563141</ele>
<time>2017-07-08T11:47:12.000Z</time>
</trkpt>
<trkpt lat="53.589465384" lon="10.053228884">
<ele>37.416595</ele>
<time>2017-07-08T11:47:15.000Z</time>
</trkpt>
<trkpt lat="53.589147735" lon="10.053059835">
<ele>40.955082</ele>
<time>2017-07-08T11:47:18.000Z</time>
</trkpt>
<trkpt lat="53.588867095" lon="10.052859886">
<ele>39.823513</ele>
<time>2017-07-08T11:47:21.000Z</time>
</trkpt>
<trkpt lat="53.588656280" lon="10.052682836">
<ele>39.337803</ele>
<time>2017-07-08T11:47:24.000Z</time>
</trkpt>
<trkpt lat="53.588462398" lon="10.052547654">
<ele>39.261211</ele>
<time>2017-07-08T11:47:27.000Z</time>
</trkpt>
<trkpt lat="53.588245285" lon="10.052397861">
<ele>39.902901</ele>
<time>2017-07-08T11:47:30.000Z</time>
</trkpt>
<trkpt lat="53.587989335" lon="10.052243781">
<ele>41.085114</ele>
<time>2017-07-08T11:47:33.000Z</time>
</trkpt>
<trkpt lat="53.587737110" lon="10.052044291">
<ele>43.495991</ele>
<time>2017-07-08T11:47:36.000Z</time>
</trkpt>
<trkpt lat="53.587474389" lon="10.051779359">
<ele>45.732033</ele>
<time>2017-07-08T11:47:39.000Z</time>
</trkpt>
<trkpt lat="53.587230805" lon="10.051531368">
<ele>48.289768</ele>
<time>2017-07-08T11:47:42.000Z</time>
</trkpt>
<trkpt lat="53.586942224" lon="10.051285798">
<ele>49.614796</ele>
<time>2017-07-08T11:47:45.000Z</time>
</trkpt>
<trkpt lat="53.586653736" lon="10.051002765">
<ele>48.842972</ele>
<time>2017-07-08T11:47:48.000Z</time>
</trkpt>
<trkpt lat="53.586360431" lon="10.050711577">
<ele>48.190907</ele>
<time>2017-07-08T11:47:51.000Z</time>
</trkpt>
<trkpt lat="53.586080244" lon="10.050443258">
<ele>46.356628</ele>
<time>2017-07-08T11:47:54.000Z</time>
</trkpt>
<trkpt lat="53.585825284" lon="10.050125506">
<ele>44.269524</ele>
<time>2017-07-08T11:47:57.000Z</time>
</trkpt>
<trkpt lat="53.585596711" lon="10.049765786">
<ele>43.589302</ele>
<time>2017-07-08T11:48:00.000Z</time>
</trkpt>
<trkpt lat="53.585388337" lon="10.049473886">
<ele>42.164864</ele>
<time>2017-07-08T11:48:03.000Z</time>
</trkpt>
<trkpt lat="53.585223112" lon="10.049188908">
<ele>41.091347</ele>
<time>2017-07-08T11:48:06.000Z</time>
</trkpt>
<trkpt lat="53.585105568" lon="10.048875105">
<ele>40.882355</ele>
<time>2017-07-08T11:48:09.000Z</time>
</trkpt>
<trkpt lat="53.585050495" lon="10.048557049">
<ele>41.381706</ele>
<time>2017-07-08T11:48:12.000Z</time>
</trkpt>
<trkpt lat="53.584954010" lon="10.048233357">
<ele>42.284569</ele>
<time>2017-07-08T11:48:15.000Z</time>
</trkpt>
<trkpt lat="53.584800745" lon="10.047959588">
<ele>42.626141</ele>
<time>2017-07-08T11:48:18.000Z</time>
</trkpt>
<trkpt lat="53.584612158" lon="10.047734950">
<ele>43.680595</ele>
<time>2017-07-08T11:48:21.000Z</time>
</trkpt>
<trkpt lat="53.584500421" lon="10.047501936">
<ele>40.986431</ele>
<time>2017-07-08T11:48:24.000Z</time>
</trkpt>
<trkpt lat="53.584515938" lon="10.047282189">
<ele>40.692215</ele>
<time>2017-07-08T11:48:27.000Z</time>
</trkpt>
<trkpt lat="53.584652595" lon="10.047116733">
<ele>42.347229</ele>
<time>2017-07-08T11:48:30.000Z</time>
</trkpt>
<trkpt lat="53.584851285" lon="10.047026010">
<ele>43.110340</ele>
<time>2017-07-08T11:48:33.000Z</time>
</trkpt>
<trkpt lat="53.585069414" lon="10.046933806">
<ele>44.808731</ele>
<time>2017-07-08T11:48:36.000Z</time>
</trkpt>
<trkpt lat="53.585284403" lon="10.046854110">
<ele>44.920258</ele>
<time>2017-07-08T11:48:39.000Z</time>
</trkpt>
<trkpt lat="53.585514606" lon="10.046787720">
<ele>46.624142</ele>
<time>2017-07-08T11:48:42.000Z</time>
</trkpt>
<trkpt lat="53.585713314" lon="10.046730493">
<ele>49.425777</ele>
<time>2017-07-08T11:48:45.000Z</time>
</trkpt>
<trkpt lat="53.585817572" lon="10.046707423">
<ele>55.380714</ele>
<time>2017-07-08T11:48:48.000Z</time>
</trkpt>
<trkpt lat="53.585880715" lon="10.046710363">
<ele>53.296265</ele>
<time>2017-07-08T11:48:51.000Z</time>
</trkpt>
<trkpt lat="53.585885806" lon="10.046712924">
<ele>54.441433</ele>
<time>2017-07-08T11:48:54.000Z</time>
</trkpt>
<trkpt lat="53.585887540" lon="10.046716788">
<ele>54.556038</ele>
<time>2017-07-08T11:48:57.000Z</time>
</trkpt>
<trkpt lat="53.585883089" lon="10.046729349">
<ele>55.267342</ele>
<time>2017-07-08T11:49:00.000Z</time>
</trkpt>
<trkpt lat="53.585851694" lon="10.046877579">
<ele>65.269569</ele>
<time>2017-07-08T13:26:09.000Z</time>
</trkpt>
<trkpt lat="53.585854438" lon="10.046861384">
<ele>64.848167</ele>
<time>2017-07-08T13:26:12.000Z</time>
</trkpt>
<trkpt lat="53.585924253" lon="10.046808823">
<ele>63.591335</ele>
<time>2017-07-08T13:26:15.000Z</time>
</trkpt>
<trkpt lat="53.586039542" lon="10.046773323">
<ele>63.223633</ele>
<time>2017-07-08T13:26:18.000Z</time>
</trkpt>
<trkpt lat="53.586209971" lon="10.046715884">
<ele>62.766422</ele>
<time>2017-07-08T13:26:21.000Z</time>
</trkpt>
<trkpt lat="53.586384878" lon="10.046631817">
<ele>62.045666</ele>
<time>2017-07-08T13:26:24.000Z</time>
</trkpt>
<trkpt lat="53.586493466" lon="10.046574176">
<ele>62.325329</ele>
<time>2017-07-08T13:26:27.000Z</time>
</trkpt>
<trkpt lat="53.586619483" lon="10.046558657">
<ele>63.933895</ele>
<time>2017-07-08T13:26:30.000Z</time>
</trkpt>
<trkpt lat="53.586732734" lon="10.046481121">
<ele>65.439056</ele>
<time>2017-07-08T13:26:33.000Z</time>
</trkpt>
<trkpt lat="53.586891214" lon="10.046469857">
<ele>66.768478</ele>
<time>2017-07-08T13:26:36.000Z</time>
</trkpt>
<trkpt lat="53.587103933" lon="10.046416165">
<ele>67.762886</ele>
<time>2017-07-08T13:26:39.000Z</time>
</trkpt>
<trkpt lat="53.587283859" lon="10.046466093">
<ele>68.864525</ele>
<time>2017-07-08T13:26:42.000Z</time>
</trkpt>
<trkpt lat="53.587457542" lon="10.046543464">
<ele>70.648293</ele>
<time>2017-07-08T13:26:45.000Z</time>
</trkpt>
<trkpt lat="53.587610936" lon="10.046422905">
<ele>68.054482</ele>
<time>2017-07-08T13:26:48.000Z</time>
</trkpt>
<trkpt lat="53.587723807" lon="10.046244194">
<ele>66.136116</ele>
<time>2017-07-08T13:26:51.000Z</time>
</trkpt>
<trkpt lat="53.587858071" lon="10.046156951">
<ele>64.114380</ele>
<time>2017-07-08T13:26:54.000Z</time>
</trkpt>
<trkpt lat="53.587999837" lon="10.046048325">
<ele>61.874084</ele>
<time>2017-07-08T13:26:57.000Z</time>
</trkpt>
<trkpt lat="53.588185559" lon="10.045976118">
<ele>61.004463</ele>
<time>2017-07-08T13:27:00.000Z</time>
</trkpt>
<trkpt lat="53.588391072" lon="10.045926338">
<ele>58.501228</ele>
<time>2017-07-08T13:27:03.000Z</time>
</trkpt>
<trkpt lat="53.588611802" lon="10.045901914">
<ele>59.023846</ele>
<time>2017-07-08T13:27:06.000Z</time>
</trkpt>
<trkpt lat="53.588827205" lon="10.045861681">
<ele>58.844330</ele>
<time>2017-07-08T13:27:09.000Z</time>
</trkpt>
<trkpt lat="53.589031378" lon="10.045776159">
<ele>57.579323</ele>
<time>2017-07-08T13:27:12.000Z</time>
</trkpt>
<trkpt lat="53.589196324" lon="10.045670149">
<ele>56.677010</ele>
<time>2017-07-08T13:27:15.000Z</time>
</trkpt>
<trkpt lat="53.589356325" lon="10.045531441">
<ele>54.566437</ele>
<time>2017-07-08T13:27:18.000Z</time>
</trkpt>
<trkpt lat="53.589540377" lon="10.045446523">
<ele>53.590992</ele>
<time>2017-07-08T13:27:21.000Z</time>
</trkpt>
<trkpt lat="53.589745368" lon="10.045344271">
<ele>52.461262</ele>
<time>2017-07-08T13:27:24.000Z</time>
</trkpt>
<trkpt lat="53.589971067" lon="10.045238082">
<ele>51.706276</ele>
<time>2017-07-08T13:27:27.000Z</time>
</trkpt>
<trkpt lat="53.590197791" lon="10.045082022">
<ele>51.711651</ele>
<time>2017-07-08T13:27:30.000Z</time>
</trkpt>
<trkpt lat="53.590403513" lon="10.044939504">
<ele>51.248810</ele>
<time>2017-07-08T13:27:33.000Z</time>
</trkpt>
<trkpt lat="53.590610767" lon="10.044834358">
<ele>50.199211</ele>
<time>2017-07-08T13:27:36.000Z</time>
</trkpt>
<trkpt lat="53.590803701" lon="10.044713647">
<ele>48.078846</ele>
<time>2017-07-08T13:27:39.000Z</time>
</trkpt>
<trkpt lat="53.590983374" lon="10.044645833">
<ele>47.970776</ele>
<time>2017-07-08T13:27:42.000Z</time>
</trkpt>
<trkpt lat="53.591132196" lon="10.044604118">
<ele>48.450596</ele>
<time>2017-07-08T13:27:45.000Z</time>
</trkpt>
<trkpt lat="53.591197629" lon="10.044592341">
<ele>49.043312</ele>
<time>2017-07-08T13:27:48.000Z</time>
</trkpt>
<trkpt lat="53.591225674" lon="10.044542312">
<ele>50.663300</ele>
<time>2017-07-08T13:27:51.000Z</time>
</trkpt>
<trkpt lat="53.591240615" lon="10.044540486">
<ele>51.794178</ele>
<time>2017-07-08T13:27:54.000Z</time>
</trkpt>
<trkpt lat="53.591246189" lon="10.044540286">
<ele>52.379711</ele>
<time>2017-07-08T13:27:57.000Z</time>
</trkpt>
<trkpt lat="53.591244558" lon="10.044539914">
<ele>52.984379</ele>
<time>2017-07-08T13:28:00.000Z</time>
</trkpt>
<trkpt lat="53.591245040" lon="10.044528151">
<ele>53.547001</ele>
<time>2017-07-08T13:28:03.000Z</time>
</trkpt>
<trkpt lat="53.591357545" lon="10.044477209">
<ele>55.245396</ele>
<time>2017-07-08T13:28:06.000Z</time>
</trkpt>
<trkpt lat="53.591533079" lon="10.044408810">
<ele>54.817619</ele>
<time>2017-07-08T13:28:09.000Z</time>
</trkpt>
<trkpt lat="53.591743758" lon="10.044340440">
<ele>54.828842</ele>
<time>2017-07-08T13:28:12.000Z</time>
</trkpt>
<trkpt lat="53.591997686" lon="10.044287715">
<ele>55.101715</ele>
<time>2017-07-08T13:28:15.000Z</time>
</trkpt>
<trkpt lat="53.592255366" lon="10.044339567">
<ele>56.926327</ele>
<time>2017-07-08T13:28:18.000Z</time>
</trkpt>
<trkpt lat="53.592447471" lon="10.044318482">
<ele>57.935574</ele>
<time>2017-07-08T13:28:21.000Z</time>
</trkpt>
<trkpt lat="53.592597275" lon="10.044313002">
<ele>57.847473</ele>
<time>2017-07-08T13:28:24.000Z</time>
</trkpt>
<trkpt lat="53.592652249" lon="10.044308602">
<ele>58.962456</ele>
<time>2017-07-08T13:28:27.000Z</time>
</trkpt>
<trkpt lat="53.592688246" lon="10.044349523">
<ele>60.733078</ele>
<time>2017-07-08T13:28:30.000Z</time>
</trkpt>
<trkpt lat="53.592751007" lon="10.044366590">
<ele>62.100193</ele>
<time>2017-07-08T13:28:33.000Z</time>
</trkpt>
<trkpt lat="53.592863414" lon="10.044384704">
<ele>62.302364</ele>
<time>2017-07-08T13:28:36.000Z</time>
</trkpt>
<trkpt lat="53.592975324" lon="10.044358664">
<ele>63.141769</ele>
<time>2017-07-08T13:28:39.000Z</time>
</trkpt>
<trkpt lat="53.593152972" lon="10.044330849">
<ele>64.273277</ele>
<time>2017-07-08T13:28:42.000Z</time>
</trkpt>
<trkpt lat="53.593315196" lon="10.044340487">
<ele>66.911087</ele>
<time>2017-07-08T13:28:45.000Z</time>
</trkpt>
<trkpt lat="53.593490007" lon="10.044367757">
<ele>71.758179</ele>
<time>2017-07-08T13:28:48.000Z</time>
</trkpt>
<trkpt lat="53.593642098" lon="10.044360482">
<ele>74.260094</ele>
<time>2017-07-08T13:28:51.000Z</time>
</trkpt>
<trkpt lat="53.593796634" lon="10.044332194">
<ele>71.831154</ele>
<time>2017-07-08T13:28:54.000Z</time>
</trkpt>
<trkpt lat="53.593980212" lon="10.044283766">
<ele>70.839836</ele>
<time>2017-07-08T13:28:57.000Z</time>
</trkpt>
<trkpt lat="53.594183688" lon="10.044251842">
<ele>70.954010</ele>
<time>2017-07-08T13:29:00.000Z</time>
</trkpt>
<trkpt lat="53.594390568" lon="10.044180794">
<ele>71.408661</ele>
<time>2017-07-08T13:29:03.000Z</time>
</trkpt>
<trkpt lat="53.594611179" lon="10.044108807">
<ele>69.989250</ele>
<time>2017-07-08T13:29:06.000Z</time>
</trkpt>
<trkpt lat="53.594820344" lon="10.044039820">
<ele>70.480881</ele>
<time>2017-07-08T13:29:09.000Z</time>
</trkpt>
<trkpt lat="53.595039889" lon="10.043954890">
<ele>70.861961</ele>
<time>2017-07-08T13:29:12.000Z</time>
</trkpt>
<trkpt lat="53.595256437" lon="10.043837684">
<ele>68.952644</ele>
<time>2017-07-08T13:29:15.000Z</time>
</trkpt>
<trkpt lat="53.595485612" lon="10.043751427">
<ele>66.597855</ele>
<time>2017-07-08T13:29:18.000Z</time>
</trkpt>
<trkpt lat="53.595631571" lon="10.043697362">
<ele>66.155602</ele>
<time>2017-07-08T13:29:21.000Z</time>
</trkpt>
<trkpt lat="53.595686431" lon="10.043747587">
<ele>66.005737</ele>
<time>2017-07-08T13:50:09.000Z</time>
</trkpt>
<trkpt lat="53.595682458" lon="10.043733188">
<ele>65.564575</ele>
<time>2017-07-08T13:50:12.000Z</time>
</trkpt>
<trkpt lat="53.595663992" lon="10.043704769">
<ele>64.729713</ele>
<time>2017-07-08T13:50:15.000Z</time>
</trkpt>
<trkpt lat="53.595662174" lon="10.043675654">
<ele>63.687828</ele>
<time>2017-07-08T13:50:18.000Z</time>
</trkpt>
<trkpt lat="53.595712441" lon="10.043697506">
<ele>62.723690</ele>
<time>2017-07-08T13:50:21.000Z</time>
</trkpt>
<trkpt lat="53.595827671" lon="10.043648241">
<ele>61.798054</ele>
<time>2017-07-08T13:50:24.000Z</time>
</trkpt>
<trkpt lat="53.595980982" lon="10.043568231">
<ele>60.556900</ele>
<time>2017-07-08T13:50:27.000Z</time>
</trkpt>
<trkpt lat="53.596180248" lon="10.043462258">
<ele>60.075592</ele>
<time>2017-07-08T13:50:30.000Z</time>
</trkpt>
<trkpt lat="53.596435319" lon="10.043355890">
<ele>59.595337</ele>
<time>2017-07-08T13:50:33.000Z</time>
</trkpt>
<trkpt lat="53.596728832" lon="10.043237054">
<ele>59.291275</ele>
<time>2017-07-08T13:50:36.000Z</time>
</trkpt>
<trkpt lat="53.597029670" lon="10.043068098">
<ele>58.735374</ele>
<time>2017-07-08T13:50:39.000Z</time>
</trkpt>
<trkpt lat="53.597365472" lon="10.042849291">
<ele>57.610981</ele>
<time>2017-07-08T13:50:42.000Z</time>
</trkpt>
<trkpt lat="53.597682740" lon="10.042609992">
<ele>56.680943</ele>
<time>2017-07-08T13:50:45.000Z</time>
</trkpt>
<trkpt lat="53.597995500" lon="10.042331480">
<ele>55.824604</ele>
<time>2017-07-08T13:50:48.000Z</time>
</trkpt>
<trkpt lat="53.598321839" lon="10.042108715">
<ele>55.789009</ele>
<time>2017-07-08T13:50:51.000Z</time>
</trkpt>
<trkpt lat="53.598542101" lon="10.041946697">
<ele>55.844540</ele>
<time>2017-07-08T13:50:54.000Z</time>
</trkpt>
<trkpt lat="53.598537860" lon="10.041877134">
<ele>54.899700</ele>
<time>2017-07-08T13:51:12.000Z</time>
</trkpt>
<trkpt lat="53.598531055" lon="10.041872773">
<ele>54.990368</ele>
<time>2017-07-08T13:51:15.000Z</time>
</trkpt>
<trkpt lat="53.598473453" lon="10.041821804">
<ele>55.885342</ele>
<time>2017-07-08T13:51:36.000Z</time>
</trkpt>
<trkpt lat="53.598472348" lon="10.041823353">
<ele>55.908413</ele>
<time>2017-07-08T13:51:39.000Z</time>
</trkpt>
<trkpt lat="53.598546456" lon="10.041838059">
<ele>55.998989</ele>
<time>2017-07-08T13:51:42.000Z</time>
</trkpt>
<trkpt lat="53.598723007" lon="10.041698310">
<ele>55.307575</ele>
<time>2017-07-08T13:51:45.000Z</time>
</trkpt>
<trkpt lat="53.598971548" lon="10.041588990">
<ele>53.864101</ele>
<time>2017-07-08T13:51:48.000Z</time>
</trkpt>
<trkpt lat="53.599240470" lon="10.041410433">
<ele>52.377934</ele>
<time>2017-07-08T13:51:51.000Z</time>
</trkpt>
<trkpt lat="53.599538380" lon="10.041313684">
<ele>52.479084</ele>
<time>2017-07-08T13:51:54.000Z</time>
</trkpt>
<trkpt lat="53.599812595" lon="10.041262469">
<ele>53.783676</ele>
<time>2017-07-08T13:51:57.000Z</time>
</trkpt>
<trkpt lat="53.600061003" lon="10.041207364">
<ele>54.203335</ele>
<time>2017-07-08T13:52:00.000Z</time>
</trkpt>
<trkpt lat="53.600257385" lon="10.041148792">
<ele>55.025700</ele>
<time>2017-07-08T13:52:03.000Z</time>
</trkpt>
<trkpt lat="53.600434243" lon="10.041093604">
<ele>55.679195</ele>
<time>2017-07-08T13:52:06.000Z</time>
</trkpt>
<trkpt lat="53.600560432" lon="10.041047495">
<ele>57.270748</ele>
<time>2017-07-08T13:52:09.000Z</time>
</trkpt>
<trkpt lat="53.600688995" lon="10.041027921">
<ele>56.266598</ele>
<time>2017-07-08T13:52:12.000Z</time>
</trkpt>
<trkpt lat="53.600781690" lon="10.040990474">
<ele>55.317039</ele>
<time>2017-07-08T13:52:15.000Z</time>
</trkpt>
<trkpt lat="53.600820647" lon="10.040973093">
<ele>54.776707</ele>
<time>2017-07-08T13:52:18.000Z</time>
</trkpt>
<trkpt lat="53.600819858" lon="10.040960107">
<ele>54.394928</ele>
<time>2017-07-08T13:52:21.000Z</time>
</trkpt>
<trkpt lat="53.600801659" lon="10.040968558">
<ele>54.671539</ele>
<time>2017-07-08T13:52:24.000Z</time>
</trkpt>
<trkpt lat="53.600764953" lon="10.040987755">
<ele>55.175053</ele>
<time>2017-07-08T14:04:21.000Z</time>
</trkpt>
<trkpt lat="53.600827444" lon="10.040967650">
<ele>55.149223</ele>
<time>2017-07-08T14:04:24.000Z</time>
</trkpt>
<trkpt lat="53.600912728" lon="10.040933346">
<ele>55.005436</ele>
<time>2017-07-08T14:04:27.000Z</time>
</trkpt>
<trkpt lat="53.601076578" lon="10.040920097">
<ele>54.305721</ele>
<time>2017-07-08T14:04:30.000Z</time>
</trkpt>
<trkpt lat="53.601308965" lon="10.040895989">
<ele>53.705708</ele>
<time>2017-07-08T14:04:33.000Z</time>
</trkpt>
<trkpt lat="53.601573471" lon="10.040891991">
<ele>53.106056</ele>
<time>2017-07-08T14:04:36.000Z</time>
</trkpt>
<trkpt lat="53.601840307" lon="10.040836667">
<ele>58.184338</ele>
<time>2017-07-08T14:04:39.000Z</time>
</trkpt>
<trkpt lat="53.602108932" lon="10.040801639">
<ele>58.836941</ele>
<time>2017-07-08T14:04:42.000Z</time>
</trkpt>
<trkpt lat="53.602401209" lon="10.040746831">
<ele>59.490406</ele>
<time>2017-07-08T14:04:45.000Z</time>
</trkpt>
<trkpt lat="53.602718083" lon="10.040676788">
<ele>60.461544</ele>
<time>2017-07-08T14:04:48.000Z</time>
</trkpt>
<trkpt lat="53.603042025" lon="10.040576826">
<ele>59.900249</ele>
<time>2017-07-08T14:04:51.000Z</time>
</trkpt>
<trkpt lat="53.603376795" lon="10.040475058">
<ele>60.877483</ele>
<time>2017-07-08T14:04:54.000Z</time>
</trkpt>
<trkpt lat="53.603683643" lon="10.040384048">
<ele>61.262341</ele>
<time>2017-07-08T14:04:57.000Z</time>
</trkpt>
<trkpt lat="53.604001820" lon="10.040306292">
<ele>62.227371</ele>
<time>2017-07-08T14:05:00.000Z</time>
</trkpt>
<trkpt lat="53.604324579" lon="10.040210420">
<ele>63.364368</ele>
<time>2017-07-08T14:05:03.000Z</time>
</trkpt>
<trkpt lat="53.604650062" lon="10.040092251">
<ele>64.176628</ele>
<time>2017-07-08T14:05:06.000Z</time>
</trkpt>
<trkpt lat="53.605000071" lon="10.039965245">
<ele>63.031677</ele>
<time>2017-07-08T14:05:09.000Z</time>
</trkpt>
<trkpt lat="53.605334345" lon="10.039812031">
<ele>62.572475</ele>
<time>2017-07-08T14:05:12.000Z</time>
</trkpt>
<trkpt lat="53.605676096" lon="10.039635168">
<ele>62.039783</ele>
<time>2017-07-08T14:05:15.000Z</time>
</trkpt>
<trkpt lat="53.605994274" lon="10.039454771">
<ele>61.622620</ele>
<time>2017-07-08T14:05:18.000Z</time>
</trkpt>
<trkpt lat="53.606285882" lon="10.039288541">
<ele>61.077126</ele>
<time>2017-07-08T14:05:21.000Z</time>
</trkpt>
<trkpt lat="53.606564951" lon="10.039147562">
<ele>60.722073</ele>
<time>2017-07-08T14:05:24.000Z</time>
</trkpt>
<trkpt lat="53.606830002" lon="10.039025838">
<ele>60.471901</ele>
<time>2017-07-08T14:05:27.000Z</time>
</trkpt>
<trkpt lat="53.607106190" lon="10.038934263">
<ele>59.946327</ele>
<time>2017-07-08T14:05:30.000Z</time>
</trkpt>
<trkpt lat="53.607345267" lon="10.038859626">
<ele>59.619541</ele>
<time>2017-07-08T14:05:33.000Z</time>
</trkpt>
<trkpt lat="53.607565597" lon="10.038817644">
<ele>59.376549</ele>
<time>2017-07-08T14:05:36.000Z</time>
</trkpt>
<trkpt lat="53.607775503" lon="10.038822317">
<ele>60.099487</ele>
<time>2017-07-08T14:05:39.000Z</time>
</trkpt>
<trkpt lat="53.607941012" lon="10.038803914">
<ele>60.681309</ele>
<time>2017-07-08T14:05:42.000Z</time>
</trkpt>
<trkpt lat="53.608044710" lon="10.038795460">
<ele>61.354557</ele>
<time>2017-07-08T14:05:45.000Z</time>
</trkpt>
<trkpt lat="53.608063347" lon="10.038786838">
<ele>59.687908</ele>
<time>2017-07-08T14:05:48.000Z</time>
</trkpt>
<trkpt lat="53.608066959" lon="10.038797480">
<ele>59.688179</ele>
<time>2017-07-08T14:05:51.000Z</time>
</trkpt>
<trkpt lat="53.608068278" lon="10.038796488">
<ele>59.679729</ele>
<time>2017-07-08T14:05:54.000Z</time>
</trkpt>
<trkpt lat="53.608127261" lon="10.038795874">
<ele>58.941952</ele>
<time>2017-07-08T14:05:57.000Z</time>
</trkpt>
<trkpt lat="53.608195394" lon="10.038816468">
<ele>58.565388</ele>
<time>2017-07-08T14:06:00.000Z</time>
</trkpt>
<trkpt lat="53.608242417" lon="10.038867347">
<ele>58.763611</ele>
<time>2017-07-08T14:06:03.000Z</time>
</trkpt>
<trkpt lat="53.608270594" lon="10.039043129">
<ele>60.871986</ele>
<time>2017-07-08T14:06:06.000Z</time>
</trkpt>
<trkpt lat="53.608288051" lon="10.039272344">
<ele>62.341835</ele>
<time>2017-07-08T14:06:09.000Z</time>
</trkpt>
<trkpt lat="53.608282068" lon="10.039632612">
<ele>65.146141</ele>
<time>2017-07-08T14:06:12.000Z</time>
</trkpt>
<trkpt lat="53.608240237" lon="10.040091844">
<ele>64.898300</ele>
<time>2017-07-08T14:06:15.000Z</time>
</trkpt>
<trkpt lat="53.608148344" lon="10.040588275">
<ele>64.420708</ele>
<time>2017-07-08T14:06:18.000Z</time>
</trkpt>
<trkpt lat="53.608040910" lon="10.041093415">
<ele>63.567276</ele>
<time>2017-07-08T14:06:21.000Z</time>
</trkpt>
<trkpt lat="53.607932624" lon="10.041541636">
<ele>63.986633</ele>
<time>2017-07-08T14:06:24.000Z</time>
</trkpt>
<trkpt lat="53.607836985" lon="10.041951252">
<ele>64.180084</ele>
<time>2017-07-08T14:06:27.000Z</time>
</trkpt>
<trkpt lat="53.607763350" lon="10.042309988">
<ele>65.468765</ele>
<time>2017-07-08T14:06:30.000Z</time>
</trkpt>
<trkpt lat="53.607724872" lon="10.042608597">
<ele>63.238731</ele>
<time>2017-07-08T14:06:33.000Z</time>
</trkpt>
<trkpt lat="53.607709428" lon="10.042797922">
<ele>63.079308</ele>
<time>2017-07-08T14:06:36.000Z</time>
</trkpt>
<trkpt lat="53.607699581" lon="10.042864953">
<ele>63.527191</ele>
<time>2017-07-08T14:06:39.000Z</time>
</trkpt>
<trkpt lat="53.607694359" lon="10.042848366">
<ele>65.265419</ele>
<time>2017-07-08T14:06:42.000Z</time>
</trkpt>
<trkpt lat="53.607692125" lon="10.042901063">
<ele>65.457832</ele>
<time>2017-07-08T14:06:45.000Z</time>
</trkpt>
<trkpt lat="53.607674688" lon="10.043126981">
<ele>65.060249</ele>
<time>2017-07-08T14:06:48.000Z</time>
</trkpt>
<trkpt lat="53.607682734" lon="10.043454534">
<ele>66.040680</ele>
<time>2017-07-08T14:06:51.000Z</time>
</trkpt>
<trkpt lat="53.607727978" lon="10.043837886">
<ele>65.288002</ele>
<time>2017-07-08T14:06:54.000Z</time>
</trkpt>
<trkpt lat="53.607808065" lon="10.044286518">
<ele>63.820564</ele>
<time>2017-07-08T14:06:57.000Z</time>
</trkpt>
<trkpt lat="53.607917742" lon="10.044789691">
<ele>64.017159</ele>
<time>2017-07-08T14:07:00.000Z</time>
</trkpt>
<trkpt lat="53.608032118" lon="10.045299327">
<ele>64.665031</ele>
<time>2017-07-08T14:07:03.000Z</time>
</trkpt>
<trkpt lat="53.608125173" lon="10.045845007">
<ele>65.607773</ele>
<time>2017-07-08T14:07:06.000Z</time>
</trkpt>
<trkpt lat="53.608222539" lon="10.046422535">
<ele>66.388161</ele>
<time>2017-07-08T14:07:09.000Z</time>
</trkpt>
<trkpt lat="53.608293491" lon="10.047027049">
<ele>67.709152</ele>
<time>2017-07-08T14:07:12.000Z</time>
</trkpt>
<trkpt lat="53.608358332" lon="10.047639976">
<ele>69.800278</ele>
<time>2017-07-08T14:07:15.000Z</time>
</trkpt>
<trkpt lat="53.608391374" lon="10.048261529">
<ele>71.735321</ele>
<time>2017-07-08T14:07:18.000Z</time>
</trkpt>
<trkpt lat="53.608417129" lon="10.048901208">
<ele>72.981758</ele>
<time>2017-07-08T14:07:21.000Z</time>
</trkpt>
<trkpt lat="53.608399378" lon="10.049556233">
<ele>72.854042</ele>
<time>2017-07-08T14:07:24.000Z</time>
</trkpt>
<trkpt lat="53.608415982" lon="10.050190490">
<ele>74.660217</ele>
<time>2017-07-08T14:07:27.000Z</time>
</trkpt>
<trkpt lat="53.608427369" lon="10.050815368">
<ele>76.621681</ele>
<time>2017-07-08T14:07:30.000Z</time>
</trkpt>
<trkpt lat="53.608428941" lon="10.051451994">
<ele>79.064934</ele>
<time>2017-07-08T14:07:33.000Z</time>
</trkpt>
<trkpt lat="53.608430762" lon="10.052105540">
<ele>82.385483</ele>
<time>2017-07-08T14:07:36.000Z</time>
</trkpt>
<trkpt lat="53.608436402" lon="10.052735526">
<ele>82.836105</ele>
<time>2017-07-08T14:07:39.000Z</time>
</trkpt>
<trkpt lat="53.608450200" lon="10.053339224">
<ele>82.035515</ele>
<time>2017-07-08T14:07:42.000Z</time>
</trkpt>
<trkpt lat="53.608461964" lon="10.053941119">
<ele>82.385529</ele>
<time>2017-07-08T14:07:45.000Z</time>
</trkpt>
<trkpt lat="53.608475413" lon="10.054540479">
<ele>83.954834</ele>
<time>2017-07-08T14:07:48.000Z</time>
</trkpt>
<trkpt lat="53.608489247" lon="10.055144386">
<ele>84.771156</ele>
<time>2017-07-08T14:07:51.000Z</time>
</trkpt>
<trkpt lat="53.608496598" lon="10.055742342">
<ele>85.633881</ele>
<time>2017-07-08T14:07:54.000Z</time>
</trkpt>
<trkpt lat="53.608505001" lon="10.056290225">
<ele>86.785072</ele>
<time>2017-07-08T14:07:57.000Z</time>
</trkpt>
<trkpt lat="53.608513067" lon="10.056801345">
<ele>86.644531</ele>
<time>2017-07-08T14:08:00.000Z</time>
</trkpt>
<trkpt lat="53.608535880" lon="10.057338670">
<ele>85.894699</ele>
<time>2017-07-08T14:08:03.000Z</time>
</trkpt>
<trkpt lat="53.608548957" lon="10.057934912">
<ele>80.596588</ele>
<time>2017-07-08T14:08:06.000Z</time>
</trkpt>
<trkpt lat="53.608551193" lon="10.058548929">
<ele>79.147179</ele>
<time>2017-07-08T14:08:09.000Z</time>
</trkpt>
<trkpt lat="53.608554653" lon="10.059136126">
<ele>77.544472</ele>
<time>2017-07-08T14:08:12.000Z</time>
</trkpt>
<trkpt lat="53.608558442" lon="10.059709039">
<ele>77.017914</ele>
<time>2017-07-08T14:08:15.000Z</time>
</trkpt>
<trkpt lat="53.608561327" lon="10.060318457">
<ele>75.242996</ele>
<time>2017-07-08T14:08:18.000Z</time>
</trkpt>
<trkpt lat="53.608590102" lon="10.060998060">
<ele>69.935402</ele>
<time>2017-07-08T14:08:21.000Z</time>
</trkpt>
<trkpt lat="53.608626884" lon="10.061619831">
<ele>66.533272</ele>
<time>2017-07-08T14:08:24.000Z</time>
</trkpt>
<trkpt lat="53.608637864" lon="10.062253969">
<ele>64.044342</ele>
<time>2017-07-08T14:08:27.000Z</time>
</trkpt>
<trkpt lat="53.608648049" lon="10.062896600">
<ele>63.250965</ele>
<time>2017-07-08T14:08:30.000Z</time>
</trkpt>
<trkpt lat="53.608668304" lon="10.063513260">
<ele>63.753838</ele>
<time>2017-07-08T14:08:33.000Z</time>
</trkpt>
<trkpt lat="53.608654844" lon="10.064128390">
<ele>62.755482</ele>
<time>2017-07-08T14:08:36.000Z</time>
</trkpt>
<trkpt lat="53.608601798" lon="10.064826575">
<ele>63.571682</ele>
<time>2017-07-08T14:08:39.000Z</time>
</trkpt>
<trkpt lat="53.608559992" lon="10.065549201">
<ele>64.025200</ele>
<time>2017-07-08T14:08:42.000Z</time>
</trkpt>
<trkpt lat="53.608523442" lon="10.066275257">
<ele>66.011635</ele>
<time>2017-07-08T14:08:45.000Z</time>
</trkpt>
<trkpt lat="53.608495023" lon="10.067007601">
<ele>65.326813</ele>
<time>2017-07-08T14:08:48.000Z</time>
</trkpt>
<trkpt lat="53.608481490" lon="10.067736660">
<ele>64.478355</ele>
<time>2017-07-08T14:08:51.000Z</time>
</trkpt>
<trkpt lat="53.608513626" lon="10.068436778">
<ele>60.907230</ele>
<time>2017-07-08T14:08:54.000Z</time>
</trkpt>
<trkpt lat="53.608549692" lon="10.069121267">
<ele>59.241520</ele>
<time>2017-07-08T14:08:57.000Z</time>
</trkpt>
<trkpt lat="53.608572199" lon="10.069790500">
<ele>58.984810</ele>
<time>2017-07-08T14:09:00.000Z</time>
</trkpt>
<trkpt lat="53.608593903" lon="10.070493582">
<ele>59.084518</ele>
<time>2017-07-08T14:09:03.000Z</time>
</trkpt>
<trkpt lat="53.608600441" lon="10.071240718">
<ele>59.557732</ele>
<time>2017-07-08T14:09:06.000Z</time>
</trkpt>
<trkpt lat="53.608621955" lon="10.072019279">
<ele>59.928562</ele>
<time>2017-07-08T14:09:09.000Z</time>
</trkpt>
<trkpt lat="53.608677445" lon="10.072757965">
<ele>59.808731</ele>
<time>2017-07-08T14:09:12.000Z</time>
</trkpt>
<trkpt lat="53.608710476" lon="10.073454717">
<ele>59.987297</ele>
<time>2017-07-08T14:09:15.000Z</time>
</trkpt>
<trkpt lat="53.608715233" lon="10.074108004">
<ele>60.038746</ele>
<time>2017-07-08T14:09:18.000Z</time>
</trkpt>
<trkpt lat="53.608714305" lon="10.074723271">
<ele>61.885185</ele>
<time>2017-07-08T14:09:21.000Z</time>
</trkpt>
<trkpt lat="53.608715221" lon="10.075386038">
<ele>63.974358</ele>
<time>2017-07-08T14:09:24.000Z</time>
</trkpt>
<trkpt lat="53.608703030" lon="10.076050909">
<ele>66.905350</ele>
<time>2017-07-08T14:09:27.000Z</time>
</trkpt>
<trkpt lat="53.608650652" lon="10.076739571">
<ele>65.896988</ele>
<time>2017-07-08T14:09:30.000Z</time>
</trkpt>
<trkpt lat="53.608603867" lon="10.077478561">
<ele>65.532921</ele>
<time>2017-07-08T14:09:33.000Z</time>
</trkpt>
<trkpt lat="53.608539504" lon="10.078215172">
<ele>63.226414</ele>
<time>2017-07-08T14:09:36.000Z</time>
</trkpt>
<trkpt lat="53.608473435" lon="10.078942649">
<ele>61.798294</ele>
<time>2017-07-08T14:09:39.000Z</time>
</trkpt>
<trkpt lat="53.608393943" lon="10.079670322">
<ele>61.748272</ele>
<time>2017-07-08T14:09:42.000Z</time>
</trkpt>
<trkpt lat="53.608319535" lon="10.080378458">
<ele>61.060432</ele>
<time>2017-07-08T14:09:45.000Z</time>
</trkpt>
<trkpt lat="53.608252715" lon="10.081045101">
<ele>60.092648</ele>
<time>2017-07-08T14:09:48.000Z</time>
</trkpt>
<trkpt lat="53.608189932" lon="10.081670588">
<ele>59.335445</ele>
<time>2017-07-08T14:09:51.000Z</time>
</trkpt>
<trkpt lat="53.608142932" lon="10.082223375">
<ele>59.382362</ele>
<time>2017-07-08T14:09:54.000Z</time>
</trkpt>
<trkpt lat="53.608093458" lon="10.082717872">
<ele>59.599724</ele>
<time>2017-07-08T14:09:57.000Z</time>
</trkpt>
<trkpt lat="53.608043851" lon="10.083211064">
<ele>60.819138</ele>
<time>2017-07-08T14:10:00.000Z</time>
</trkpt>
<trkpt lat="53.607984378" lon="10.083732812">
<ele>59.729145</ele>
<time>2017-07-08T14:10:03.000Z</time>
</trkpt>
<trkpt lat="53.607923837" lon="10.084275497">
<ele>59.706432</ele>
<time>2017-07-08T14:10:06.000Z</time>
</trkpt>
<trkpt lat="53.607871097" lon="10.084857598">
<ele>59.592007</ele>
<time>2017-07-08T14:10:09.000Z</time>
</trkpt>
<trkpt lat="53.607808908" lon="10.085453440">
<ele>58.786270</ele>
<time>2017-07-08T14:10:12.000Z</time>
</trkpt>
<trkpt lat="53.607744307" lon="10.086055629">
<ele>58.758465</ele>
<time>2017-07-08T14:10:15.000Z</time>
</trkpt>
<trkpt lat="53.607685651" lon="10.086653471">
<ele>59.110126</ele>
<time>2017-07-08T14:10:18.000Z</time>
</trkpt>
<trkpt lat="53.607633835" lon="10.087260783">
<ele>58.814617</ele>
<time>2017-07-08T14:10:21.000Z</time>
</trkpt>
<trkpt lat="53.607589567" lon="10.087868045">
<ele>58.768894</ele>
<time>2017-07-08T14:10:24.000Z</time>
</trkpt>
<trkpt lat="53.607546047" lon="10.088457516">
<ele>59.991383</ele>
<time>2017-07-08T14:10:27.000Z</time>
</trkpt>
<trkpt lat="53.607465909" lon="10.089044806">
<ele>57.730160</ele>
<time>2017-07-08T14:10:30.000Z</time>
</trkpt>
<trkpt lat="53.607383446" lon="10.089633860">
<ele>57.292446</ele>
<time>2017-07-08T14:10:33.000Z</time>
</trkpt>
<trkpt lat="53.607317583" lon="10.090229765">
<ele>57.607876</ele>
<time>2017-07-08T14:10:36.000Z</time>
</trkpt>
<trkpt lat="53.607257435" lon="10.090862710">
<ele>56.593662</ele>
<time>2017-07-08T14:10:39.000Z</time>
</trkpt>
<trkpt lat="53.607157369" lon="10.091564630">
<ele>54.868191</ele>
<time>2017-07-08T14:10:42.000Z</time>
</trkpt>
<trkpt lat="53.607055606" lon="10.092283770">
<ele>54.877670</ele>
<time>2017-07-08T14:10:45.000Z</time>
</trkpt>
<trkpt lat="53.606934824" lon="10.093014214">
<ele>55.647568</ele>
<time>2017-07-08T14:10:48.000Z</time>
</trkpt>
<trkpt lat="53.606794580" lon="10.093741880">
<ele>55.708843</ele>
<time>2017-07-08T14:10:51.000Z</time>
</trkpt>
<trkpt lat="53.606651973" lon="10.094445224">
<ele>55.768410</ele>
<time>2017-07-08T14:10:54.000Z</time>
</trkpt>
<trkpt lat="53.606508125" lon="10.095104863">
<ele>56.066753</ele>
<time>2017-07-08T14:10:57.000Z</time>
</trkpt>
<trkpt lat="53.606351825" lon="10.095719298">
<ele>56.140812</ele>
<time>2017-07-08T14:11:00.000Z</time>
</trkpt>
<trkpt lat="53.606190116" lon="10.096324400">
<ele>55.787491</ele>
<time>2017-07-08T14:11:03.000Z</time>
</trkpt>
<trkpt lat="53.606036449" lon="10.096962225">
<ele>54.787544</ele>
<time>2017-07-08T14:11:06.000Z</time>
</trkpt>
<trkpt lat="53.605893380" lon="10.097632450">
<ele>54.519207</ele>
<time>2017-07-08T14:11:09.000Z</time>
</trkpt>
<trkpt lat="53.605769510" lon="10.098317439">
<ele>54.001652</ele>
<time>2017-07-08T14:11:12.000Z</time>
</trkpt>
<trkpt lat="53.605665031" lon="10.099020191">
<ele>53.891014</ele>
<time>2017-07-08T14:11:15.000Z</time>
</trkpt>
<trkpt lat="53.605580515" lon="10.099714825">
<ele>54.333397</ele>
<time>2017-07-08T14:11:18.000Z</time>
</trkpt>
<trkpt lat="53.605514212" lon="10.100385950">
<ele>55.047161</ele>
<time>2017-07-08T14:11:21.000Z</time>
</trkpt>
<trkpt lat="53.605474871" lon="10.101046337">
<ele>56.280102</ele>
<time>2017-07-08T14:11:24.000Z</time>
</trkpt>
<trkpt lat="53.605458602" lon="10.101724775">
<ele>57.159027</ele>
<time>2017-07-08T14:11:27.000Z</time>
</trkpt>
<trkpt lat="53.605449228" lon="10.102360152">
<ele>58.993679</ele>
<time>2017-07-08T14:11:30.000Z</time>
</trkpt>
<trkpt lat="53.605455776" lon="10.102948367">
<ele>61.218555</ele>
<time>2017-07-08T14:11:33.000Z</time>
</trkpt>
<trkpt lat="53.605479792" lon="10.103502723">
<ele>63.726097</ele>
<time>2017-07-08T14:11:36.000Z</time>
</trkpt>
<trkpt lat="53.605555167" lon="10.104036618">
<ele>64.940521</ele>
<time>2017-07-08T14:11:39.000Z</time>
</trkpt>
<trkpt lat="53.605624660" lon="10.104583172">
<ele>63.466198</ele>
<time>2017-07-08T14:11:42.000Z</time>
</trkpt>
<trkpt lat="53.605695691" lon="10.105168404">
<ele>62.099899</ele>
<time>2017-07-08T14:11:45.000Z</time>
</trkpt>
<trkpt lat="53.605768970" lon="10.105778117">
<ele>60.962925</ele>
<time>2017-07-08T14:11:48.000Z</time>
</trkpt>
<trkpt lat="53.605859367" lon="10.106412405">
<ele>61.667442</ele>
<time>2017-07-08T14:11:51.000Z</time>
</trkpt>
<trkpt lat="53.605971286" lon="10.107038152">
<ele>62.944027</ele>
<time>2017-07-08T14:11:54.000Z</time>
</trkpt>
<trkpt lat="53.606088491" lon="10.107621599">
<ele>64.910919</ele>
<time>2017-07-08T14:11:57.000Z</time>
</trkpt>
<trkpt lat="53.606201559" lon="10.108161547">
<ele>66.213585</ele>
<time>2017-07-08T14:12:00.000Z</time>
</trkpt>
<trkpt lat="53.606288755" lon="10.108639368">
<ele>67.909630</ele>
<time>2017-07-08T14:12:03.000Z</time>
</trkpt>
<trkpt lat="53.606360948" lon="10.109060855">
<ele>70.866280</ele>
<time>2017-07-08T14:12:06.000Z</time>
</trkpt>
<trkpt lat="53.606447533" lon="10.109485443">
<ele>73.317360</ele>
<time>2017-07-08T14:12:09.000Z</time>
</trkpt>
<trkpt lat="53.606526790" lon="10.109923717">
<ele>74.949646</ele>
<time>2017-07-08T14:12:12.000Z</time>
</trkpt>
<trkpt lat="53.606619253" lon="10.110360963">
<ele>78.416382</ele>
<time>2017-07-08T14:12:15.000Z</time>
</trkpt>
<trkpt lat="53.606738828" lon="10.110851813">
<ele>82.254318</ele>
<time>2017-07-08T14:12:18.000Z</time>
</trkpt>
<trkpt lat="53.606824748" lon="10.111356006">
<ele>84.124367</ele>
<time>2017-07-08T14:12:21.000Z</time>
</trkpt>
<trkpt lat="53.606934957" lon="10.111881809">
<ele>82.234573</ele>
<time>2017-07-08T14:12:24.000Z</time>
</trkpt>
<trkpt lat="53.607026488" lon="10.112381978">
<ele>84.164169</ele>
<time>2017-07-08T14:12:27.000Z</time>
</trkpt>
<trkpt lat="53.607117639" lon="10.112885915">
<ele>84.547424</ele>
<time>2017-07-08T14:12:30.000Z</time>
</trkpt>
<trkpt lat="53.607211771" lon="10.113416164">
<ele>86.529694</ele>
<time>2017-07-08T14:12:33.000Z</time>
</trkpt>
<trkpt lat="53.607308530" lon="10.114041501">
<ele>78.320900</ele>
<time>2017-07-08T14:12:36.000Z</time>
</trkpt>
<trkpt lat="53.607409999" lon="10.114636454">
<ele>74.390472</ele>
<time>2017-07-08T14:12:39.000Z</time>
</trkpt>
<trkpt lat="53.607462178" lon="10.115226243">
<ele>73.905006</ele>
<time>2017-07-08T14:12:42.000Z</time>
</trkpt>
<trkpt lat="53.607455947" lon="10.115841888">
<ele>75.383606</ele>
<time>2017-07-08T14:12:45.000Z</time>
</trkpt>
<trkpt lat="53.607399172" lon="10.116459919">
<ele>73.854202</ele>
<time>2017-07-08T14:12:48.000Z</time>
</trkpt>
<trkpt lat="53.607269487" lon="10.117028035">
<ele>69.260384</ele>
<time>2017-07-08T14:12:51.000Z</time>
</trkpt>
<trkpt lat="53.607082054" lon="10.117620935">
<ele>66.532089</ele>
<time>2017-07-08T14:12:54.000Z</time>
</trkpt>
<trkpt lat="53.606868259" lon="10.118226552">
<ele>63.733105</ele>
<time>2017-07-08T14:12:57.000Z</time>
</trkpt>
<trkpt lat="53.606704828" lon="10.118758672">
<ele>61.988125</ele>
<time>2017-07-08T14:13:00.000Z</time>
</trkpt>
<trkpt lat="53.606573992" lon="10.119073751">
<ele>61.448826</ele>
<time>2017-07-08T14:13:03.000Z</time>
</trkpt>
<trkpt lat="53.606523834" lon="10.119195701">
<ele>62.706844</ele>
<time>2017-07-08T14:13:06.000Z</time>
</trkpt>
<trkpt lat="53.606527386" lon="10.119200914">
<ele>61.865276</ele>
<time>2017-07-08T14:13:54.000Z</time>
</trkpt>
<trkpt lat="53.606496049" lon="10.119276772">
<ele>62.060345</ele>
<time>2017-07-08T14:13:57.000Z</time>
</trkpt>
<trkpt lat="53.606408488" lon="10.119498926">
<ele>62.296192</ele>
<time>2017-07-08T14:14:00.000Z</time>
</trkpt>
<trkpt lat="53.606280238" lon="10.119849073">
<ele>61.802860</ele>
<time>2017-07-08T14:14:03.000Z</time>
</trkpt>
<trkpt lat="53.606107004" lon="10.120274277">
<ele>62.832790</ele>
<time>2017-07-08T14:14:06.000Z</time>
</trkpt>
<trkpt lat="53.605891681" lon="10.120762261">
<ele>63.498924</ele>
<time>2017-07-08T14:14:09.000Z</time>
</trkpt>
<trkpt lat="53.605668161" lon="10.121242320">
<ele>61.975052</ele>
<time>2017-07-08T14:14:12.000Z</time>
</trkpt>
<trkpt lat="53.605445191" lon="10.121692702">
<ele>61.421043</ele>
<time>2017-07-08T14:14:15.000Z</time>
</trkpt>
<trkpt lat="53.605247217" lon="10.122119279">
<ele>61.964149</ele>
<time>2017-07-08T14:14:18.000Z</time>
</trkpt>
<trkpt lat="53.605069739" lon="10.122543583">
<ele>62.246166</ele>
<time>2017-07-08T14:14:21.000Z</time>
</trkpt>
<trkpt lat="53.604907472" lon="10.122896871">
<ele>62.353062</ele>
<time>2017-07-08T14:14:24.000Z</time>
</trkpt>
<trkpt lat="53.604759715" lon="10.123215064">
<ele>63.653973</ele>
<time>2017-07-08T14:14:27.000Z</time>
</trkpt>
<trkpt lat="53.604599855" lon="10.123575837">
<ele>64.309830</ele>
<time>2017-07-08T14:14:30.000Z</time>
</trkpt>
<trkpt lat="53.604445326" lon="10.123934502">
<ele>64.871605</ele>
<time>2017-07-08T14:14:33.000Z</time>
</trkpt>
<trkpt lat="53.604290523" lon="10.124301961">
<ele>64.025284</ele>
<time>2017-07-08T14:14:36.000Z</time>
</trkpt>
<trkpt lat="53.604158391" lon="10.124644041">
<ele>66.570885</ele>
<time>2017-07-08T14:14:39.000Z</time>
</trkpt>
<trkpt lat="53.604064986" lon="10.124996012">
<ele>64.685333</ele>
<time>2017-07-08T14:14:42.000Z</time>
</trkpt>
<trkpt lat="53.603995106" lon="10.125349396">
<ele>62.738838</ele>
<time>2017-07-08T14:14:45.000Z</time>
</trkpt>
<trkpt lat="53.603949355" lon="10.125677334">
<ele>61.989063</ele>
<time>2017-07-08T14:14:48.000Z</time>
</trkpt>
<trkpt lat="53.603885877" lon="10.126016817">
<ele>61.995956</ele>
<time>2017-07-08T14:14:51.000Z</time>
</trkpt>
<trkpt lat="53.603794915" lon="10.126358197">
<ele>60.378269</ele>
<time>2017-07-08T14:14:54.000Z</time>
</trkpt>
<trkpt lat="53.603669409" lon="10.126735027">
<ele>61.371349</ele>
<time>2017-07-08T14:14:57.000Z</time>
</trkpt>
<trkpt lat="53.603504169" lon="10.127081421">
<ele>61.439720</ele>
<time>2017-07-08T14:15:00.000Z</time>
</trkpt>
<trkpt lat="53.603300966" lon="10.127338751">
<ele>60.796120</ele>
<time>2017-07-08T14:15:03.000Z</time>
</trkpt>
<trkpt lat="53.603112356" lon="10.127481672">
<ele>61.369987</ele>
<time>2017-07-08T14:15:06.000Z</time>
</trkpt>
<trkpt lat="53.603010059" lon="10.127557443">
<ele>62.726292</ele>
<time>2017-07-08T14:15:09.000Z</time>
</trkpt>
<trkpt lat="53.602956249" lon="10.127594682">
<ele>66.677391</ele>
<time>2017-07-08T14:15:27.000Z</time>
</trkpt>
<trkpt lat="53.602917505" lon="10.127636625">
<ele>67.655563</ele>
<time>2017-07-08T14:15:30.000Z</time>
</trkpt>
<trkpt lat="53.602812859" lon="10.127705878">
<ele>69.075554</ele>
<time>2017-07-08T14:15:33.000Z</time>
</trkpt>
<trkpt lat="53.602638191" lon="10.127788957">
<ele>69.992577</ele>
<time>2017-07-08T14:15:36.000Z</time>
</trkpt>
<trkpt lat="53.602410922" lon="10.127893929">
<ele>66.828598</ele>
<time>2017-07-08T14:15:39.000Z</time>
</trkpt>
<trkpt lat="53.602160160" lon="10.127996285">
<ele>66.218178</ele>
<time>2017-07-08T14:15:42.000Z</time>
</trkpt>
<trkpt lat="53.601943133" lon="10.128119340">
<ele>66.555229</ele>
<time>2017-07-08T14:15:45.000Z</time>
</trkpt>
<trkpt lat="53.601822054" lon="10.128176608">
<ele>69.399544</ele>
<time>2017-07-08T14:15:48.000Z</time>
</trkpt>
<trkpt lat="53.601737949" lon="10.128244075">
<ele>69.736542</ele>
<time>2017-07-08T14:15:51.000Z</time>
</trkpt>
<trkpt lat="53.601788519" lon="10.128436847">
<ele>71.600510</ele>
<time>2017-07-08T14:15:54.000Z</time>
</trkpt>
<trkpt lat="53.601941196" lon="10.128649078">
<ele>71.031677</ele>
<time>2017-07-08T14:15:57.000Z</time>
</trkpt>
<trkpt lat="53.602127962" lon="10.128901215">
<ele>70.356201</ele>
<time>2017-07-08T14:16:00.000Z</time>
</trkpt>
<trkpt lat="53.602340193" lon="10.129169259">
<ele>69.120216</ele>
<time>2017-07-08T14:16:03.000Z</time>
</trkpt>
<trkpt lat="53.602595842" lon="10.129447208">
<ele>70.539101</ele>
<time>2017-07-08T14:16:06.000Z</time>
</trkpt>
<trkpt lat="53.602855948" lon="10.129730558">
<ele>72.711945</ele>
<time>2017-07-08T14:16:09.000Z</time>
</trkpt>
<trkpt lat="53.603095774" lon="10.130014328">
<ele>73.898560</ele>
<time>2017-07-08T14:16:12.000Z</time>
</trkpt>
<trkpt lat="53.603329407" lon="10.130305952">
<ele>73.690971</ele>
<time>2017-07-08T14:16:15.000Z</time>
</trkpt>
<trkpt lat="53.603588576" lon="10.130608583">
<ele>73.990051</ele>
<time>2017-07-08T14:16:18.000Z</time>
</trkpt>
<trkpt lat="53.603840916" lon="10.130954263">
<ele>74.002235</ele>
<time>2017-07-08T14:16:21.000Z</time>
</trkpt>
<trkpt lat="53.604121403" lon="10.131326730">
<ele>74.592293</ele>
<time>2017-07-08T14:16:24.000Z</time>
</trkpt>
<trkpt lat="53.604415075" lon="10.131712889">
<ele>75.359558</ele>
<time>2017-07-08T14:16:27.000Z</time>
</trkpt>
<trkpt lat="53.604704225" lon="10.132098832">
<ele>75.971931</ele>
<time>2017-07-08T14:16:30.000Z</time>
</trkpt>
<trkpt lat="53.604991158" lon="10.132501837">
<ele>77.381432</ele>
<time>2017-07-08T14:16:33.000Z</time>
</trkpt>
<trkpt lat="53.605282723" lon="10.132922727">
<ele>78.941628</ele>
<time>2017-07-08T14:16:36.000Z</time>
</trkpt>
<trkpt lat="53.605582284" lon="10.133338257">
<ele>78.063248</ele>
<time>2017-07-08T14:16:39.000Z</time>
</trkpt>
<trkpt lat="53.605872092" lon="10.133800395">
<ele>77.389923</ele>
<time>2017-07-08T14:16:42.000Z</time>
</trkpt>
<trkpt lat="53.606163601" lon="10.134263061">
<ele>76.949417</ele>
<time>2017-07-08T14:16:45.000Z</time>
</trkpt>
<trkpt lat="53.606440414" lon="10.134723105">
<ele>77.643303</ele>
<time>2017-07-08T14:16:48.000Z</time>
</trkpt>
<trkpt lat="53.606721183" lon="10.135197557">
<ele>77.580490</ele>
<time>2017-07-08T14:16:51.000Z</time>
</trkpt>
<trkpt lat="53.607004856" lon="10.135672243">
<ele>78.002106</ele>
<time>2017-07-08T14:16:54.000Z</time>
</trkpt>
<trkpt lat="53.607284014" lon="10.136147891">
<ele>78.976517</ele>
<time>2017-07-08T14:16:57.000Z</time>
</trkpt>
<trkpt lat="53.607555547" lon="10.136621505">
<ele>79.589920</ele>
<time>2017-07-08T14:17:00.000Z</time>
</trkpt>
<trkpt lat="53.607796643" lon="10.137090246">
<ele>77.461075</ele>
<time>2017-07-08T14:17:03.000Z</time>
</trkpt>
<trkpt lat="53.608016286" lon="10.137537829">
<ele>74.817291</ele>
<time>2017-07-08T14:17:06.000Z</time>
</trkpt>
<trkpt lat="53.608211543" lon="10.138001627">
<ele>73.647491</ele>
<time>2017-07-08T14:17:09.000Z</time>
</trkpt>
<trkpt lat="53.608420375" lon="10.138487059">
<ele>73.960312</ele>
<time>2017-07-08T14:17:12.000Z</time>
</trkpt>
<trkpt lat="53.608631478" lon="10.138977764">
<ele>73.550652</ele>
<time>2017-07-08T14:17:15.000Z</time>
</trkpt>
<trkpt lat="53.608839425" lon="10.139484085">
<ele>74.360649</ele>
<time>2017-07-08T14:17:18.000Z</time>
</trkpt>
<trkpt lat="53.609023783" lon="10.139987821">
<ele>77.697334</ele>
<time>2017-07-08T14:17:21.000Z</time>
</trkpt>
<trkpt lat="53.609212156" lon="10.140496525">
<ele>79.880455</ele>
<time>2017-07-08T14:17:24.000Z</time>
</trkpt>
<trkpt lat="53.609416658" lon="10.140976238">
<ele>81.450630</ele>
<time>2017-07-08T14:17:27.000Z</time>
</trkpt>
<trkpt lat="53.609601645" lon="10.141410351">
<ele>84.089775</ele>
<time>2017-07-08T14:17:30.000Z</time>
</trkpt>
<trkpt lat="53.609768941" lon="10.141836727">
<ele>85.311989</ele>
<time>2017-07-08T14:17:33.000Z</time>
</trkpt>
<trkpt lat="53.609942406" lon="10.142216576">
<ele>86.171791</ele>
<time>2017-07-08T14:17:36.000Z</time>
</trkpt>
<trkpt lat="53.610107196" lon="10.142572138">
<ele>89.155518</ele>
<time>2017-07-08T14:17:39.000Z</time>
</trkpt>
<trkpt lat="53.610264581" lon="10.142934920">
<ele>88.115746</ele>
<time>2017-07-08T14:17:42.000Z</time>
</trkpt>
<trkpt lat="53.610347193" lon="10.143196495">
<ele>84.198967</ele>
<time>2017-07-08T14:17:45.000Z</time>
</trkpt>
<trkpt lat="53.610376513" lon="10.143289502">
<ele>82.553291</ele>
<time>2017-07-08T14:17:48.000Z</time>
</trkpt>
<trkpt lat="53.610383368" lon="10.143321543">
<ele>81.437782</ele>
<time>2017-07-08T14:18:18.000Z</time>
</trkpt>
<trkpt lat="53.610389849" lon="10.143347763">
<ele>81.592484</ele>
<time>2017-07-08T14:18:21.000Z</time>
</trkpt>
<trkpt lat="53.610415645" lon="10.143306570">
<ele>79.446312</ele>
<time>2017-07-08T14:18:51.000Z</time>
</trkpt>
<trkpt lat="53.610427654" lon="10.143288725">
<ele>79.032578</ele>
<time>2017-07-08T14:18:54.000Z</time>
</trkpt>
<trkpt lat="53.610442959" lon="10.143274461">
<ele>79.162918</ele>
<time>2017-07-08T14:18:57.000Z</time>
</trkpt>
<trkpt lat="53.610425883" lon="10.143272085">
<ele>78.848297</ele>
<time>2017-07-08T14:19:00.000Z</time>
</trkpt>
<trkpt lat="53.610421849" lon="10.143277710">
<ele>78.829590</ele>
<time>2017-07-08T14:19:03.000Z</time>
</trkpt>
<trkpt lat="53.610432808" lon="10.143261669">
<ele>78.799530</ele>
<time>2017-07-08T14:19:06.000Z</time>
</trkpt>
<trkpt lat="53.610414483" lon="10.143231375">
<ele>78.375549</ele>
<time>2017-07-08T14:19:09.000Z</time>
</trkpt>
<trkpt lat="53.610422633" lon="10.143238196">
<ele>77.380798</ele>
<time>2017-07-08T14:19:12.000Z</time>
</trkpt>
<trkpt lat="53.610421566" lon="10.143226319">
<ele>76.234604</ele>
<time>2017-07-08T14:19:15.000Z</time>
</trkpt>
<trkpt lat="53.610393241" lon="10.143199136">
<ele>75.756645</ele>
<time>2017-07-08T14:19:18.000Z</time>
</trkpt>
<trkpt lat="53.610391114" lon="10.143195243">
<ele>75.698341</ele>
<time>2017-07-08T14:19:21.000Z</time>
</trkpt>
<trkpt lat="53.610377867" lon="10.143196020">
<ele>75.446487</ele>
<time>2017-07-08T14:19:24.000Z</time>
</trkpt>
<trkpt lat="53.610359351" lon="10.143208712">
<ele>75.140991</ele>
<time>2017-07-08T14:19:27.000Z</time>
</trkpt>
<trkpt lat="53.610337531" lon="10.143222658">
<ele>75.025665</ele>
<time>2017-07-08T14:19:30.000Z</time>
</trkpt>
<trkpt lat="53.610306139" lon="10.143242106">
<ele>74.965919</ele>
<time>2017-07-08T14:19:33.000Z</time>
</trkpt>
<trkpt lat="53.610291609" lon="10.143272244">
<ele>75.216621</ele>
<time>2017-07-08T14:19:36.000Z</time>
</trkpt>
<trkpt lat="53.610288996" lon="10.143329350">
<ele>76.088371</ele>
<time>2017-07-08T14:19:39.000Z</time>
</trkpt>
<trkpt lat="53.610280212" lon="10.143400270">
<ele>74.852768</ele>
<time>2017-07-08T14:19:42.000Z</time>
</trkpt>
<trkpt lat="53.610274649" lon="10.143455906">
<ele>73.923584</ele>
<time>2017-07-08T14:19:45.000Z</time>
</trkpt>
<trkpt lat="53.610269346" lon="10.143518038">
<ele>74.169556</ele>
<time>2017-07-08T14:19:48.000Z</time>
</trkpt>
<trkpt lat="53.610259267" lon="10.143570400">
<ele>74.413177</ele>
<time>2017-07-08T14:19:51.000Z</time>
</trkpt>
<trkpt lat="53.610227644" lon="10.143587416">
<ele>74.853363</ele>
<time>2017-07-08T14:19:54.000Z</time>
</trkpt>
<trkpt lat="53.610197119" lon="10.143599625">
<ele>74.689507</ele>
<time>2017-07-08T14:19:57.000Z</time>
</trkpt>
<trkpt lat="53.610166492" lon="10.143621225">
<ele>73.680222</ele>
<time>2017-07-08T14:20:00.000Z</time>
</trkpt>
<trkpt lat="53.610145784" lon="10.143590865">
<ele>73.678146</ele>
<time>2017-07-08T14:20:03.000Z</time>
</trkpt>
<trkpt lat="53.610107851" lon="10.143580644">
<ele>74.510292</ele>
<time>2017-07-08T14:20:06.000Z</time>
</trkpt>
<trkpt lat="53.610069747" lon="10.143575730">
<ele>74.605957</ele>
<time>2017-07-08T14:20:09.000Z</time>
</trkpt>
<trkpt lat="53.610030284" lon="10.143572595">
<ele>74.849426</ele>
<time>2017-07-08T14:20:12.000Z</time>
</trkpt>
<trkpt lat="53.609997851" lon="10.143563713">
<ele>75.326340</ele>
<time>2017-07-08T14:20:15.000Z</time>
</trkpt>
<trkpt lat="53.609962280" lon="10.143566202">
<ele>76.010368</ele>
<time>2017-07-08T14:20:18.000Z</time>
</trkpt>
<trkpt lat="53.609938573" lon="10.143529138">
<ele>76.185326</ele>
<time>2017-07-08T14:20:21.000Z</time>
</trkpt>
<trkpt lat="53.609923136" lon="10.143538410">
<ele>76.160995</ele>
<time>2017-07-08T14:20:24.000Z</time>
</trkpt>
<trkpt lat="53.609937505" lon="10.143505586">
<ele>75.348991</ele>
<time>2017-07-08T14:20:27.000Z</time>
</trkpt>
<trkpt lat="53.609941461" lon="10.143479313">
<ele>75.912636</ele>
<time>2017-07-08T14:20:30.000Z</time>
</trkpt>
<trkpt lat="53.609947175" lon="10.143459260">
<ele>75.797211</ele>
<time>2017-07-08T14:20:33.000Z</time>
</trkpt>
<trkpt lat="53.609948214" lon="10.143436328">
<ele>75.707993</ele>
<time>2017-07-08T14:20:36.000Z</time>
</trkpt>
<trkpt lat="53.610076046" lon="10.143472436">
<ele>75.355095</ele>
<time>2017-07-08T14:22:12.000Z</time>
</trkpt>
</trkseg>
</trk>
</gpx>